CFG3704 EDDF-MDLR
Flight info
| Callsign | CFG3704 |
|---|---|
| Flight time | N/A |
| Altitude | 32000 |
| Route | SOBRA7D SOBRA Y180 DIK UN857 TOLVU/N0488F310 DCT RAPOR DCT GIMER/N0483F330 DCT ESTOC DCT PON DCT DITAL DCT GODIX DCT DIDAK DCT KURIS DCT TERPO DCT ERIGA DCT AZFIC DCT LOTEE DCT PETEK DCT DETOX/M083F340 DCT LENSI DCT 36N030W/M083F360 32N040W 28N050W DCT KAVAX/M083F380 M525 SOCCO/N0481F380 M525 LEILA DCT ANTEX ANTEX2E |
| Aircraft | A339/H-SDE1E2E3GHIJ1J4J7LM1OP2RVWXYZ/LB1D1 |
Departure
| Time | N/A |
|---|---|
| Airport | Frankfurt Main Airport (EDDF) |
Arrival
| Time | 2026-04-11 19:09 |
|---|---|
| Airport | Casa De Campo International Airport (MDLR) |
| Time | Latitude | Longitude | Altitude | Speed | Heading |
|---|---|---|---|---|---|
| 2026-04-11 09:37 | 49.94651 | 6.43203 | 27378 ft | 429 kts | 248° |
| 2026-04-11 09:38 | 49.93459 | 6.38928 | 27613 ft | 431 kts | 248° |
| 2026-04-11 09:38 | 49.92275 | 6.34705 | 27857 ft | 432 kts | 247° |
| 2026-04-11 09:38 | 49.91215 | 6.30939 | 28082 ft | 433 kts | 246° |
| 2026-04-11 09:38 | 49.90023 | 6.26717 | 28418 ft | 431 kts | 246° |
| 2026-04-11 09:39 | 49.88790 | 6.22427 | 28761 ft | 430 kts | 247° |
| 2026-04-11 09:39 | 49.87559 | 6.18250 | 29080 ft | 429 kts | 244° |
| 2026-04-11 09:39 | 49.86171 | 6.14158 | 29409 ft | 428 kts | 241° |
| 2026-04-11 09:39 | 49.84670 | 6.10208 | 29709 ft | 428 kts | 239° |
| 2026-04-11 09:40 | 49.83044 | 6.06346 | 29992 ft | 428 kts | 236° |
| 2026-04-11 09:40 | 49.81342 | 6.02639 | 30292 ft | 426 kts | 235° |
| 2026-04-11 09:40 | 49.79631 | 5.98895 | 30576 ft | 426 kts | 236° |
| 2026-04-11 09:40 | 49.77958 | 5.95128 | 30831 ft | 425 kts | 237° |
| 2026-04-11 09:41 | 49.76394 | 5.91266 | 31090 ft | 425 kts | 239° |
| 2026-04-11 09:41 | 49.74946 | 5.87299 | 31318 ft | 425 kts | 242° |
| 2026-04-11 09:41 | 49.73626 | 5.83255 | 31523 ft | 425 kts | 244° |
| 2026-04-11 09:41 | 49.72421 | 5.79096 | 31706 ft | 426 kts | 247° |
| 2026-04-11 09:42 | 49.71330 | 5.74798 | 31887 ft | 427 kts | 249° |
| 2026-04-11 09:42 | 49.70329 | 5.70497 | 32082 ft | 428 kts | 249° |
| 2026-04-11 09:42 | 49.69332 | 5.66228 | 32251 ft | 429 kts | 249° |
| 2026-04-11 09:43 | 49.67432 | 5.58103 | 32578 ft | 430 kts | 249° |
| 2026-04-11 09:43 | 49.66418 | 5.53773 | 32732 ft | 431 kts | 249° |
| 2026-04-11 09:43 | 49.65414 | 5.49483 | 32848 ft | 432 kts | 249° |
| 2026-04-11 09:44 | 49.63365 | 5.40760 | 32853 ft | 432 kts | 249° |
| 2026-04-11 09:44 | 49.61381 | 5.32010 | 32851 ft | 433 kts | 250° |
| 2026-04-11 09:45 | 49.59529 | 5.23212 | 32851 ft | 432 kts | 250° |
| 2026-04-11 09:45 | 49.57898 | 5.14303 | 32846 ft | 433 kts | 252° |
| 2026-04-11 09:46 | 49.56318 | 5.05405 | 32837 ft | 433 kts | 252° |
| 2026-04-11 09:46 | 49.54730 | 4.96510 | 32834 ft | 432 kts | 252° |
| 2026-04-11 09:47 | 49.53140 | 4.87626 | 32831 ft | 433 kts | 252° |
| 2026-04-11 09:47 | 49.51534 | 4.78704 | 32834 ft | 433 kts | 252° |
| 2026-04-11 09:48 | 49.49922 | 4.69789 | 32832 ft | 434 kts | 252° |
| 2026-04-11 09:48 | 49.48306 | 4.60897 | 32832 ft | 434 kts | 252° |
| 2026-04-11 09:49 | 49.46680 | 4.51981 | 32828 ft | 434 kts | 252° |
| 2026-04-11 09:49 | 49.45051 | 4.43103 | 32827 ft | 434 kts | 252° |
| 2026-04-11 09:50 | 49.43407 | 4.34186 | 32826 ft | 434 kts | 251° |
| 2026-04-11 09:50 | 49.41756 | 4.25269 | 32829 ft | 433 kts | 251° |
| 2026-04-11 09:51 | 49.40112 | 4.16431 | 32831 ft | 433 kts | 251° |
| 2026-04-11 09:51 | 49.38460 | 4.07587 | 32821 ft | 433 kts | 251° |
| 2026-04-11 09:52 | 49.36805 | 3.98716 | 32817 ft | 434 kts | 252° |
| 2026-04-11 09:52 | 49.35457 | 3.89729 | 32813 ft | 435 kts | 254° |
| 2026-04-11 09:53 | 49.34158 | 3.80684 | 32813 ft | 434 kts | 254° |
| 2026-04-11 09:53 | 49.32862 | 3.71686 | 32815 ft | 435 kts | 254° |
| 2026-04-11 09:54 | 49.31551 | 3.62640 | 32818 ft | 435 kts | 254° |
| 2026-04-11 09:54 | 49.30239 | 3.53630 | 32814 ft | 435 kts | 254° |
| 2026-04-11 09:55 | 49.28917 | 3.44598 | 32813 ft | 435 kts | 254° |
| 2026-04-11 09:55 | 49.27593 | 3.35601 | 32808 ft | 435 kts | 254° |
| 2026-04-11 09:56 | 49.26251 | 3.26553 | 32807 ft | 435 kts | 253° |
| 2026-04-11 09:56 | 49.24918 | 3.17600 | 32805 ft | 435 kts | 253° |
| 2026-04-11 09:57 | 49.23568 | 3.08598 | 32805 ft | 434 kts | 253° |
| 2026-04-11 09:57 | 49.22217 | 2.99628 | 32801 ft | 435 kts | 253° |
| 2026-04-11 09:58 | 49.20864 | 2.90691 | 32804 ft | 434 kts | 253° |
| 2026-04-11 09:58 | 49.19492 | 2.81697 | 32811 ft | 434 kts | 252° |
| 2026-04-11 09:59 | 49.18124 | 2.72765 | 32818 ft | 433 kts | 253° |
| 2026-04-11 09:59 | 49.16755 | 2.63873 | 32818 ft | 434 kts | 253° |
| 2026-04-11 10:00 | 49.15363 | 2.54896 | 32818 ft | 433 kts | 252° |
| 2026-04-11 10:00 | 49.13978 | 2.46004 | 32819 ft | 434 kts | 253° |
| 2026-04-11 10:01 | 49.12746 | 2.37013 | 32819 ft | 436 kts | 257° |
| 2026-04-11 10:01 | 49.11876 | 2.27817 | 32828 ft | 436 kts | 257° |
| 2026-04-11 10:02 | 49.11027 | 2.18724 | 32826 ft | 435 kts | 256° |
| 2026-04-11 10:02 | 49.09958 | 2.09763 | 32814 ft | 430 kts | 252° |
| 2026-04-11 10:03 | 49.08339 | 2.00980 | 32809 ft | 428 kts | 247° |
| 2026-04-11 10:03 | 49.06220 | 1.92588 | 32806 ft | 425 kts | 242° |
| 2026-04-11 10:04 | 49.03769 | 1.84401 | 32807 ft | 424 kts | 242° |
| 2026-04-11 10:04 | 49.01328 | 1.76265 | 32818 ft | 424 kts | 242° |
| 2026-04-11 10:05 | 48.98870 | 1.68132 | 32821 ft | 423 kts | 242° |
| 2026-04-11 10:05 | 48.96418 | 1.60056 | 32827 ft | 423 kts | 242° |
| 2026-04-11 10:06 | 48.93956 | 1.51971 | 32837 ft | 423 kts | 242° |
| 2026-04-11 10:06 | 48.91471 | 1.43849 | 32837 ft | 424 kts | 242° |
| 2026-04-11 10:07 | 48.88983 | 1.35737 | 32841 ft | 423 kts | 242° |
| 2026-04-11 10:07 | 48.86486 | 1.27625 | 32839 ft | 421 kts | 241° |
| 2026-04-11 10:08 | 48.84023 | 1.19646 | 32838 ft | 420 kts | 241° |
| 2026-04-11 10:08 | 48.81543 | 1.11637 | 32844 ft | 420 kts | 240° |
| 2026-04-11 10:09 | 48.79046 | 1.03601 | 32836 ft | 421 kts | 241° |
| 2026-04-11 10:09 | 48.76561 | 0.95634 | 32832 ft | 420 kts | 241° |
| 2026-04-11 10:10 | 48.73940 | 0.87806 | 32835 ft | 418 kts | 237° |
| 2026-04-11 10:10 | 48.70944 | 0.80297 | 32832 ft | 418 kts | 235° |
| 2026-04-11 10:11 | 48.67921 | 0.72801 | 32839 ft | 418 kts | 235° |
| 2026-04-11 10:11 | 48.64892 | 0.65330 | 32838 ft | 418 kts | 236° |
| 2026-04-11 10:12 | 48.61855 | 0.57863 | 32844 ft | 418 kts | 235° |
| 2026-04-11 10:12 | 48.58832 | 0.50455 | 32847 ft | 418 kts | 235° |
| 2026-04-11 10:13 | 48.55767 | 0.42971 | 32849 ft | 418 kts | 235° |
| 2026-04-11 10:13 | 48.52728 | 0.35569 | 32855 ft | 418 kts | 235° |
| 2026-04-11 10:14 | 48.49657 | 0.28108 | 32862 ft | 417 kts | 234° |
| 2026-04-11 10:14 | 48.46604 | 0.20718 | 32865 ft | 418 kts | 234° |
| 2026-04-11 10:15 | 48.43526 | 0.13274 | 32865 ft | 418 kts | 234° |
| 2026-04-11 10:15 | 48.40454 | 0.05876 | 32867 ft | 418 kts | 234° |
| 2026-04-11 10:16 | 48.37398 | -0.01461 | 32870 ft | 417 kts | 233° |
| 2026-04-11 10:16 | 48.34067 | -0.08576 | 32876 ft | 415 kts | 230° |
| 2026-04-11 10:17 | 48.30648 | -0.15518 | 32878 ft | 415 kts | 231° |
| 2026-04-11 10:17 | 48.27209 | -0.22478 | 32884 ft | 415 kts | 230° |
| 2026-04-11 10:18 | 48.23758 | -0.29344 | 32881 ft | 414 kts | 230° |
| 2026-04-11 10:18 | 48.20256 | -0.36189 | 32888 ft | 413 kts | 230° |
| 2026-04-11 10:19 | 48.16777 | -0.42978 | 32900 ft | 413 kts | 230° |
| 2026-04-11 10:19 | 48.13289 | -0.49776 | 32905 ft | 413 kts | 229° |
| 2026-04-11 10:20 | 48.09795 | -0.56576 | 32913 ft | 413 kts | 230° |
| 2026-04-11 10:20 | 48.06302 | -0.63352 | 32914 ft | 414 kts | 230° |
| 2026-04-11 10:21 | 48.02782 | -0.70165 | 32918 ft | 413 kts | 229° |
| 2026-04-11 10:21 | 47.99272 | -0.76944 | 32917 ft | 413 kts | 229° |
| 2026-04-11 10:22 | 47.95766 | -0.83700 | 32921 ft | 412 kts | 229° |
| 2026-04-11 10:22 | 47.92278 | -0.90401 | 32916 ft | 411 kts | 229° |
| 2026-04-11 10:23 | 47.88757 | -0.97155 | 32924 ft | 411 kts | 229° |
| 2026-04-11 10:23 | 47.85270 | -1.03821 | 32909 ft | 410 kts | 229° |
| 2026-04-11 10:24 | 47.81757 | -1.10520 | 32913 ft | 409 kts | 229° |
| 2026-04-11 10:24 | 47.78265 | -1.17166 | 32922 ft | 409 kts | 229° |
| 2026-04-11 10:25 | 47.74769 | -1.23806 | 32932 ft | 410 kts | 229° |
| 2026-04-11 10:25 | 47.71270 | -1.30431 | 32930 ft | 408 kts | 229° |
| 2026-04-11 10:26 | 47.67777 | -1.37030 | 32935 ft | 408 kts | 229° |
| 2026-04-11 10:26 | 47.64287 | -1.43613 | 32939 ft | 408 kts | 229° |
| 2026-04-11 10:27 | 47.60783 | -1.50183 | 32939 ft | 407 kts | 228° |
| 2026-04-11 10:27 | 47.57059 | -1.56470 | 32946 ft | 407 kts | 225° |
| 2026-04-11 10:28 | 47.53306 | -1.62681 | 32948 ft | 406 kts | 226° |
| 2026-04-11 10:28 | 47.49541 | -1.68892 | 32947 ft | 405 kts | 225° |
| 2026-04-11 10:29 | 47.45768 | -1.75091 | 32950 ft | 404 kts | 225° |
| 2026-04-11 10:29 | 47.42022 | -1.81225 | 32952 ft | 404 kts | 225° |
| 2026-04-11 10:30 | 47.38146 | -1.87199 | 32953 ft | 404 kts | 221° |
| 2026-04-11 10:30 | 47.33920 | -1.92663 | 32960 ft | 405 kts | 217° |
| 2026-04-11 10:31 | 47.29404 | -1.97554 | 32957 ft | 408 kts | 213° |
| 2026-04-11 10:31 | 47.24596 | -2.01953 | 32965 ft | 407 kts | 211° |
| 2026-04-11 10:32 | 47.19760 | -2.06319 | 32966 ft | 409 kts | 212° |
| 2026-04-11 10:32 | 47.14936 | -2.10651 | 32970 ft | 409 kts | 211° |
| 2026-04-11 10:33 | 47.10093 | -2.14975 | 32975 ft | 407 kts | 211° |
| 2026-04-11 10:33 | 47.05302 | -2.19234 | 32977 ft | 403 kts | 211° |
| 2026-04-11 10:34 | 47.00513 | -2.23479 | 32981 ft | 403 kts | 211° |
| 2026-04-11 10:34 | 46.95693 | -2.27744 | 32982 ft | 404 kts | 211° |
| 2026-04-11 10:35 | 46.91106 | -2.32457 | 32987 ft | 404 kts | 218° |
| 2026-04-11 10:35 | 46.86958 | -2.37961 | 32987 ft | 405 kts | 224° |
| 2026-04-11 10:36 | 46.83306 | -2.44180 | 32981 ft | 407 kts | 230° |
| 2026-04-11 10:36 | 46.80172 | -2.51128 | 32989 ft | 410 kts | 236° |
| 2026-04-11 10:37 | 46.77313 | -2.58288 | 32989 ft | 409 kts | 236° |
| 2026-04-11 10:37 | 46.74465 | -2.65441 | 32991 ft | 409 kts | 235° |
| 2026-04-11 10:38 | 46.71627 | -2.72576 | 32999 ft | 408 kts | 236° |
| 2026-04-11 10:38 | 46.67384 | -2.83229 | 33001 ft | 407 kts | 236° |
| 2026-04-11 10:39 | 46.64539 | -2.90357 | 33016 ft | 407 kts | 235° |
| 2026-04-11 10:39 | 46.61711 | -2.97412 | 33031 ft | 406 kts | 235° |
| 2026-04-11 10:40 | 46.58770 | -3.04383 | 33018 ft | 403 kts | 232° |
| 2026-04-11 10:40 | 46.55473 | -3.10897 | 33007 ft | 401 kts | 228° |
| 2026-04-11 10:41 | 46.51796 | -3.16977 | 33019 ft | 400 kts | 224° |
| 2026-04-11 10:41 | 46.47945 | -3.22782 | 33017 ft | 400 kts | 224° |
| 2026-04-11 10:42 | 46.44116 | -3.28574 | 33020 ft | 399 kts | 224° |
| 2026-04-11 10:42 | 46.40257 | -3.34376 | 33022 ft | 401 kts | 224° |
| 2026-04-11 10:43 | 46.34464 | -3.43051 | 33024 ft | 400 kts | 224° |
| 2026-04-11 10:44 | 46.30612 | -3.48803 | 33023 ft | 400 kts | 224° |
| 2026-04-11 10:44 | 46.26734 | -3.54570 | 33023 ft | 399 kts | 224° |
| 2026-04-11 10:45 | 46.22884 | -3.60289 | 33023 ft | 398 kts | 224° |
| 2026-04-11 10:45 | 46.19029 | -3.66003 | 33028 ft | 399 kts | 224° |
| 2026-04-11 10:46 | 46.15169 | -3.71711 | 33032 ft | 400 kts | 224° |
| 2026-04-11 10:46 | 46.11284 | -3.77448 | 33034 ft | 400 kts | 224° |
| 2026-04-11 10:47 | 46.07402 | -3.83165 | 33035 ft | 399 kts | 224° |
| 2026-04-11 10:47 | 46.03552 | -3.88824 | 33036 ft | 400 kts | 224° |
| 2026-04-11 10:48 | 45.99654 | -3.94534 | 33037 ft | 399 kts | 224° |
| 2026-04-11 10:48 | 45.95784 | -4.00201 | 33040 ft | 399 kts | 224° |
| 2026-04-11 10:49 | 45.91905 | -4.05863 | 33045 ft | 400 kts | 224° |
| 2026-04-11 10:49 | 45.87996 | -4.11557 | 33048 ft | 399 kts | 224° |
| 2026-04-11 10:50 | 45.84111 | -4.17208 | 33053 ft | 399 kts | 224° |
| 2026-04-11 10:50 | 45.80242 | -4.22816 | 33061 ft | 398 kts | 224° |
| 2026-04-11 10:51 | 45.76339 | -4.28470 | 33059 ft | 399 kts | 224° |
| 2026-04-11 10:51 | 45.72445 | -4.34093 | 33064 ft | 399 kts | 224° |
| 2026-04-11 10:52 | 45.68538 | -4.39723 | 33067 ft | 399 kts | 224° |
| 2026-04-11 10:52 | 45.64628 | -4.45350 | 33068 ft | 400 kts | 224° |
| 2026-04-11 10:53 | 45.60719 | -4.50966 | 33066 ft | 400 kts | 224° |
| 2026-04-11 10:53 | 45.56806 | -4.56567 | 33067 ft | 400 kts | 224° |
| 2026-04-11 10:54 | 45.52881 | -4.62177 | 33070 ft | 400 kts | 224° |
| 2026-04-11 10:54 | 45.48963 | -4.67768 | 33073 ft | 400 kts | 223° |
| 2026-04-11 10:55 | 45.45033 | -4.73362 | 33069 ft | 399 kts | 223° |
| 2026-04-11 10:55 | 45.41112 | -4.78938 | 33075 ft | 399 kts | 223° |
| 2026-04-11 10:56 | 45.37191 | -4.84490 | 33075 ft | 400 kts | 223° |
| 2026-04-11 10:56 | 45.33250 | -4.90068 | 33078 ft | 400 kts | 223° |
| 2026-04-11 10:57 | 45.29307 | -4.95636 | 33083 ft | 400 kts | 223° |
| 2026-04-11 10:57 | 45.25360 | -5.01194 | 33079 ft | 400 kts | 223° |
| 2026-04-11 10:58 | 45.21428 | -5.06723 | 33078 ft | 401 kts | 223° |
| 2026-04-11 10:58 | 45.17480 | -5.12264 | 33080 ft | 401 kts | 223° |
| 2026-04-11 10:59 | 45.13509 | -5.17821 | 33086 ft | 399 kts | 223° |
| 2026-04-11 10:59 | 45.09558 | -5.23343 | 33087 ft | 401 kts | 224° |
| 2026-04-11 11:00 | 45.05595 | -5.28874 | 33091 ft | 401 kts | 223° |
| 2026-04-11 11:00 | 45.01622 | -5.34399 | 33092 ft | 402 kts | 224° |
| 2026-04-11 11:01 | 44.97667 | -5.39898 | 33091 ft | 402 kts | 223° |
| 2026-04-11 11:01 | 44.93677 | -5.45426 | 33101 ft | 404 kts | 223° |
| 2026-04-11 11:02 | 44.89662 | -5.50981 | 33109 ft | 403 kts | 224° |
| 2026-04-11 11:02 | 44.85645 | -5.56531 | 33106 ft | 403 kts | 224° |
| 2026-04-11 11:03 | 44.81652 | -5.62029 | 33111 ft | 403 kts | 224° |
| 2026-04-11 11:03 | 44.77665 | -5.67514 | 33117 ft | 403 kts | 223° |
| 2026-04-11 11:04 | 44.73634 | -5.73047 | 33120 ft | 403 kts | 224° |
| 2026-04-11 11:04 | 44.69886 | -5.78883 | 33126 ft | 405 kts | 229° |
| 2026-04-11 11:05 | 44.66571 | -5.85247 | 33130 ft | 407 kts | 234° |
| 2026-04-11 11:05 | 44.63719 | -5.92129 | 33131 ft | 410 kts | 239° |
| 2026-04-11 11:06 | 44.61378 | -5.99438 | 33130 ft | 411 kts | 244° |
| 2026-04-11 11:06 | 44.59244 | -6.06818 | 33129 ft | 412 kts | 243° |
| 2026-04-11 11:07 | 44.57090 | -6.14268 | 33131 ft | 413 kts | 244° |
| 2026-04-11 11:07 | 44.54944 | -6.21687 | 33135 ft | 413 kts | 244° |
| 2026-04-11 11:08 | 44.52790 | -6.29130 | 33132 ft | 413 kts | 244° |
| 2026-04-11 11:08 | 44.50638 | -6.36536 | 33134 ft | 413 kts | 244° |
| 2026-04-11 11:09 | 44.48481 | -6.43952 | 33135 ft | 412 kts | 244° |
| 2026-04-11 11:09 | 44.46312 | -6.51389 | 33135 ft | 413 kts | 244° |
| 2026-04-11 11:10 | 44.44137 | -6.58819 | 33136 ft | 412 kts | 244° |
| 2026-04-11 11:10 | 44.41971 | -6.66191 | 33138 ft | 412 kts | 243° |
| 2026-04-11 11:11 | 44.39821 | -6.73494 | 33137 ft | 412 kts | 244° |
| 2026-04-11 11:11 | 44.37656 | -6.80828 | 33139 ft | 412 kts | 244° |
| 2026-04-11 11:12 | 44.35472 | -6.88199 | 33138 ft | 412 kts | 244° |
| 2026-04-11 11:12 | 44.33282 | -6.95573 | 33140 ft | 412 kts | 244° |
| 2026-04-11 11:13 | 44.31091 | -7.02935 | 33139 ft | 412 kts | 244° |
| 2026-04-11 11:13 | 44.28880 | -7.10337 | 33141 ft | 412 kts | 244° |
| 2026-04-11 11:14 | 44.26688 | -7.17654 | 33143 ft | 413 kts | 244° |
| 2026-04-11 11:14 | 44.24456 | -7.25074 | 33148 ft | 413 kts | 244° |
| 2026-04-11 11:15 | 44.22236 | -7.32448 | 33149 ft | 414 kts | 244° |
| 2026-04-11 11:15 | 44.20011 | -7.39807 | 33151 ft | 414 kts | 244° |
| 2026-04-11 11:16 | 44.17763 | -7.47224 | 33159 ft | 414 kts | 244° |
| 2026-04-11 11:16 | 44.15538 | -7.54546 | 33152 ft | 414 kts | 244° |
| 2026-04-11 11:17 | 44.13281 | -7.61949 | 33152 ft | 415 kts | 244° |
| 2026-04-11 11:17 | 44.11019 | -7.69348 | 33156 ft | 415 kts | 244° |
| 2026-04-11 11:18 | 44.08757 | -7.76727 | 33161 ft | 416 kts | 244° |
| 2026-04-11 11:18 | 44.06488 | -7.84102 | 33159 ft | 416 kts | 244° |
| 2026-04-11 11:19 | 44.04221 | -7.91461 | 33161 ft | 416 kts | 244° |
| 2026-04-11 11:19 | 44.01944 | -7.98824 | 33164 ft | 416 kts | 244° |
| 2026-04-11 11:20 | 43.99652 | -8.06218 | 33162 ft | 415 kts | 244° |
| 2026-04-11 11:20 | 43.97371 | -8.13555 | 33163 ft | 416 kts | 245° |
| 2026-04-11 11:21 | 43.95075 | -8.20911 | 33164 ft | 417 kts | 244° |
| 2026-04-11 11:21 | 43.92779 | -8.28252 | 33165 ft | 417 kts | 245° |
| 2026-04-11 11:22 | 43.90458 | -8.35654 | 33169 ft | 417 kts | 245° |
| 2026-04-11 11:22 | 43.88132 | -8.43049 | 33173 ft | 419 kts | 245° |
| 2026-04-11 11:23 | 43.85809 | -8.50410 | 33185 ft | 419 kts | 245° |
| 2026-04-11 11:23 | 43.83482 | -8.57774 | 33184 ft | 420 kts | 245° |
| 2026-04-11 11:24 | 43.81135 | -8.65171 | 33180 ft | 420 kts | 244° |
| 2026-04-11 11:24 | 43.78782 | -8.72569 | 33176 ft | 420 kts | 245° |
| 2026-04-11 11:25 | 43.76427 | -8.79950 | 33177 ft | 421 kts | 245° |
| 2026-04-11 11:25 | 43.74070 | -8.87316 | 33173 ft | 421 kts | 245° |
| 2026-04-11 11:26 | 43.71703 | -8.94696 | 33177 ft | 422 kts | 245° |
| 2026-04-11 11:26 | 43.69331 | -9.02074 | 33173 ft | 422 kts | 245° |
| 2026-04-11 11:27 | 43.66940 | -9.09487 | 33182 ft | 421 kts | 245° |
| 2026-04-11 11:27 | 43.64561 | -9.16838 | 33189 ft | 421 kts | 245° |
| 2026-04-11 11:28 | 43.62171 | -9.24208 | 33185 ft | 421 kts | 245° |
| 2026-04-11 11:28 | 43.59790 | -9.31529 | 33191 ft | 422 kts | 246° |
| 2026-04-11 11:29 | 43.56171 | -9.42617 | 33196 ft | 422 kts | 246° |
| 2026-04-11 11:29 | 43.53759 | -9.49980 | 33191 ft | 423 kts | 246° |
| 2026-04-11 11:30 | 43.51352 | -9.57309 | 33203 ft | 423 kts | 246° |
| 2026-04-11 11:30 | 43.48928 | -9.64673 | 33193 ft | 423 kts | 246° |
| 2026-04-11 11:31 | 43.46494 | -9.72044 | 33199 ft | 424 kts | 245° |
| 2026-04-11 11:31 | 43.44054 | -9.79411 | 33207 ft | 425 kts | 246° |
| 2026-04-11 11:32 | 43.41596 | -9.86811 | 33206 ft | 425 kts | 246° |
| 2026-04-11 11:32 | 43.39146 | -9.94170 | 33199 ft | 425 kts | 246° |
| 2026-04-11 11:33 | 43.36679 | -10.01558 | 33212 ft | 426 kts | 246° |
| 2026-04-11 11:33 | 43.34224 | -10.08897 | 33205 ft | 425 kts | 246° |
| 2026-04-11 11:34 | 43.31743 | -10.16286 | 33207 ft | 426 kts | 246° |
| 2026-04-11 11:34 | 43.29282 | -10.23600 | 33209 ft | 425 kts | 246° |
| 2026-04-11 11:35 | 43.26786 | -10.30988 | 33214 ft | 425 kts | 246° |
| 2026-04-11 11:35 | 43.24307 | -10.38319 | 33214 ft | 426 kts | 246° |
| 2026-04-11 11:36 | 43.21812 | -10.45667 | 33220 ft | 426 kts | 246° |
| 2026-04-11 11:36 | 43.19329 | -10.52963 | 33206 ft | 426 kts | 246° |
| 2026-04-11 11:37 | 43.16818 | -10.60322 | 33207 ft | 427 kts | 247° |
| 2026-04-11 11:37 | 43.14306 | -10.67667 | 33214 ft | 428 kts | 246° |
| 2026-04-11 11:38 | 43.11767 | -10.75063 | 33215 ft | 428 kts | 246° |
| 2026-04-11 11:38 | 43.09253 | -10.82376 | 33219 ft | 428 kts | 246° |
| 2026-04-11 11:39 | 43.06712 | -10.89746 | 33211 ft | 428 kts | 246° |
| 2026-04-11 11:39 | 43.04165 | -10.97111 | 33217 ft | 429 kts | 247° |
| 2026-04-11 11:40 | 43.01624 | -11.04440 | 33218 ft | 429 kts | 246° |
| 2026-04-11 11:40 | 42.99080 | -11.11756 | 33225 ft | 429 kts | 247° |
| 2026-04-11 11:41 | 42.96512 | -11.19123 | 33232 ft | 429 kts | 247° |
| 2026-04-11 11:41 | 42.93951 | -11.26453 | 33232 ft | 429 kts | 247° |
| 2026-04-11 11:42 | 42.91387 | -11.33766 | 33224 ft | 428 kts | 247° |
| 2026-04-11 11:42 | 42.88823 | -11.41069 | 33231 ft | 428 kts | 247° |
| 2026-04-11 11:43 | 42.86254 | -11.48359 | 33231 ft | 429 kts | 247° |
| 2026-04-11 11:43 | 42.83675 | -11.55663 | 33234 ft | 429 kts | 247° |
| 2026-04-11 11:44 | 42.81078 | -11.62998 | 33239 ft | 430 kts | 248° |
| 2026-04-11 11:44 | 42.78490 | -11.70286 | 33240 ft | 430 kts | 246° |
| 2026-04-11 11:45 | 42.75894 | -11.77584 | 33239 ft | 430 kts | 247° |
| 2026-04-11 11:45 | 42.73272 | -11.84935 | 33241 ft | 430 kts | 247° |
| 2026-04-11 11:46 | 42.70661 | -11.92230 | 33240 ft | 431 kts | 247° |
| 2026-04-11 11:46 | 42.67836 | -11.99412 | 33238 ft | 433 kts | 243° |
| 2026-04-11 11:47 | 42.64520 | -12.06212 | 33242 ft | 436 kts | 238° |
| 2026-04-11 11:47 | 42.60980 | -12.12845 | 33246 ft | 435 kts | 238° |
| 2026-04-11 11:48 | 42.57444 | -12.19468 | 33243 ft | 436 kts | 238° |
| 2026-04-11 11:48 | 42.53877 | -12.26128 | 33248 ft | 435 kts | 238° |
| 2026-04-11 11:49 | 42.50333 | -12.32720 | 33253 ft | 435 kts | 238° |
| 2026-04-11 11:49 | 42.46779 | -12.39321 | 33244 ft | 435 kts | 238° |
| 2026-04-11 11:50 | 42.43199 | -12.45952 | 33253 ft | 437 kts | 238° |
| 2026-04-11 11:50 | 42.39621 | -12.52566 | 33258 ft | 437 kts | 238° |
| 2026-04-11 11:51 | 42.36032 | -12.59184 | 33255 ft | 437 kts | 238° |
| 2026-04-11 11:51 | 42.32450 | -12.65775 | 33268 ft | 437 kts | 238° |
| 2026-04-11 11:52 | 42.28870 | -12.72349 | 33263 ft | 437 kts | 238° |
| 2026-04-11 11:52 | 42.25253 | -12.78977 | 33265 ft | 438 kts | 238° |
| 2026-04-11 11:53 | 42.21638 | -12.85584 | 33277 ft | 438 kts | 238° |
| 2026-04-11 11:53 | 42.18039 | -12.92147 | 33275 ft | 438 kts | 238° |
| 2026-04-11 11:54 | 42.14406 | -12.98759 | 33277 ft | 438 kts | 238° |
| 2026-04-11 11:54 | 42.10773 | -13.05356 | 33276 ft | 439 kts | 238° |
| 2026-04-11 11:55 | 42.07133 | -13.11952 | 33280 ft | 439 kts | 238° |
| 2026-04-11 11:55 | 42.03513 | -13.18499 | 33276 ft | 438 kts | 238° |
| 2026-04-11 11:56 | 41.99872 | -13.25068 | 33281 ft | 438 kts | 238° |
| 2026-04-11 11:56 | 41.96245 | -13.31600 | 33286 ft | 438 kts | 238° |
| 2026-04-11 11:57 | 41.92600 | -13.38149 | 33285 ft | 439 kts | 238° |
| 2026-04-11 11:57 | 41.88948 | -13.44694 | 33284 ft | 438 kts | 238° |
| 2026-04-11 11:58 | 41.85305 | -13.51214 | 33294 ft | 438 kts | 238° |
| 2026-04-11 11:58 | 41.81646 | -13.57739 | 33294 ft | 439 kts | 238° |
| 2026-04-11 11:59 | 41.77999 | -13.64238 | 33287 ft | 438 kts | 238° |
| 2026-04-11 11:59 | 41.74342 | -13.70736 | 33292 ft | 439 kts | 238° |
| 2026-04-11 12:00 | 41.70657 | -13.77272 | 33294 ft | 439 kts | 238° |
| 2026-04-11 12:00 | 41.66989 | -13.83763 | 33298 ft | 438 kts | 238° |
| 2026-04-11 12:01 | 41.63318 | -13.90242 | 33302 ft | 438 kts | 238° |
| 2026-04-11 12:01 | 41.59658 | -13.96689 | 33307 ft | 438 kts | 238° |
| 2026-04-11 12:02 | 41.55984 | -14.03154 | 33314 ft | 438 kts | 238° |
| 2026-04-11 12:02 | 41.52289 | -14.09639 | 33312 ft | 438 kts | 238° |
| 2026-04-11 12:03 | 41.48616 | -14.16070 | 33314 ft | 437 kts | 238° |
| 2026-04-11 12:03 | 41.44931 | -14.22510 | 33314 ft | 437 kts | 238° |
| 2026-04-11 12:04 | 41.41261 | -14.28909 | 33318 ft | 437 kts | 238° |
| 2026-04-11 12:04 | 41.37557 | -14.35353 | 33320 ft | 437 kts | 238° |
| 2026-04-11 12:05 | 41.33879 | -14.41739 | 33321 ft | 437 kts | 238° |
| 2026-04-11 12:05 | 41.30179 | -14.48151 | 33323 ft | 437 kts | 238° |
| 2026-04-11 12:06 | 41.26496 | -14.54520 | 33326 ft | 437 kts | 238° |
| 2026-04-11 12:06 | 41.22785 | -14.60924 | 33322 ft | 437 kts | 238° |
| 2026-04-11 12:07 | 41.19066 | -14.67327 | 33331 ft | 437 kts | 238° |
| 2026-04-11 12:07 | 41.15374 | -14.73673 | 33333 ft | 438 kts | 238° |
| 2026-04-11 12:08 | 41.11614 | -14.80128 | 33669 ft | 440 kts | 238° |
| 2026-04-11 12:08 | 41.09754 | -14.83313 | 33988 ft | 438 kts | 238° |
| 2026-04-11 12:08 | 41.07896 | -14.86491 | 34269 ft | 437 kts | 238° |
| 2026-04-11 12:09 | 41.04186 | -14.92827 | 34333 ft | 436 kts | 238° |
| 2026-04-11 12:09 | 41.00720 | -14.99307 | 34341 ft | 432 kts | 243° |
| 2026-04-11 12:10 | 40.97727 | -15.06178 | 34341 ft | 429 kts | 248° |
| 2026-04-11 12:10 | 40.95103 | -15.13241 | 34346 ft | 429 kts | 249° |
| 2026-04-11 12:11 | 40.92485 | -15.20305 | 34346 ft | 429 kts | 249° |
| 2026-04-11 12:11 | 40.89863 | -15.27373 | 34350 ft | 428 kts | 249° |
| 2026-04-11 12:12 | 40.87237 | -15.34444 | 34347 ft | 429 kts | 249° |
| 2026-04-11 12:12 | 40.84616 | -15.41482 | 34340 ft | 428 kts | 249° |
| 2026-04-11 12:13 | 40.81996 | -15.48506 | 34340 ft | 428 kts | 249° |
| 2026-04-11 12:13 | 40.79364 | -15.55546 | 34343 ft | 428 kts | 249° |
| 2026-04-11 12:14 | 40.76732 | -15.62572 | 34341 ft | 428 kts | 249° |
| 2026-04-11 12:14 | 40.74088 | -15.69608 | 34345 ft | 429 kts | 248° |
| 2026-04-11 12:15 | 40.71441 | -15.76635 | 34338 ft | 429 kts | 248° |
| 2026-04-11 12:15 | 40.68805 | -15.83617 | 34338 ft | 429 kts | 248° |
| 2026-04-11 12:16 | 40.66156 | -15.90618 | 34341 ft | 429 kts | 248° |
| 2026-04-11 12:16 | 40.63493 | -15.97642 | 34344 ft | 429 kts | 248° |
| 2026-04-11 12:17 | 40.60823 | -16.04664 | 34349 ft | 429 kts | 248° |
| 2026-04-11 12:17 | 40.58164 | -16.11641 | 34348 ft | 430 kts | 248° |
| 2026-04-11 12:18 | 40.55479 | -16.18669 | 34354 ft | 432 kts | 248° |
| 2026-04-11 12:19 | 40.51426 | -16.29243 | 34357 ft | 432 kts | 248° |
| 2026-04-11 12:19 | 40.48730 | -16.36260 | 34365 ft | 431 kts | 248° |
| 2026-04-11 12:20 | 40.46042 | -16.43237 | 34368 ft | 431 kts | 248° |
| 2026-04-11 12:20 | 40.43335 | -16.50244 | 34377 ft | 431 kts | 248° |
| 2026-04-11 12:21 | 40.40633 | -16.57226 | 34382 ft | 430 kts | 248° |
| 2026-04-11 12:21 | 40.37925 | -16.64203 | 34386 ft | 430 kts | 248° |
| 2026-04-11 12:22 | 40.35207 | -16.71191 | 34386 ft | 431 kts | 248° |
| 2026-04-11 12:22 | 40.32483 | -16.78182 | 34378 ft | 431 kts | 248° |
| 2026-04-11 12:23 | 40.29776 | -16.85115 | 34387 ft | 431 kts | 248° |
| 2026-04-11 12:23 | 40.27038 | -16.92107 | 34378 ft | 431 kts | 248° |
| 2026-04-11 12:24 | 40.24311 | -16.99054 | 34375 ft | 432 kts | 248° |
| 2026-04-11 12:24 | 40.21555 | -17.06053 | 34371 ft | 432 kts | 248° |
| 2026-04-11 12:25 | 40.18813 | -17.13005 | 34369 ft | 434 kts | 248° |
| 2026-04-11 12:25 | 40.16042 | -17.20017 | 34370 ft | 434 kts | 248° |
| 2026-04-11 12:26 | 40.13293 | -17.26956 | 34369 ft | 433 kts | 248° |
| 2026-04-11 12:26 | 40.10521 | -17.33933 | 34369 ft | 433 kts | 248° |
| 2026-04-11 12:27 | 40.07748 | -17.40900 | 34370 ft | 433 kts | 248° |
| 2026-04-11 12:27 | 40.04982 | -17.47830 | 34371 ft | 433 kts | 248° |
| 2026-04-11 12:28 | 40.02217 | -17.54745 | 34378 ft | 433 kts | 248° |
| 2026-04-11 12:28 | 39.99432 | -17.61694 | 34386 ft | 433 kts | 248° |
| 2026-04-11 12:29 | 39.96658 | -17.68599 | 34396 ft | 432 kts | 247° |
| 2026-04-11 12:29 | 39.93868 | -17.75529 | 34394 ft | 433 kts | 247° |
| 2026-04-11 12:30 | 39.91056 | -17.82492 | 34396 ft | 433 kts | 247° |
| 2026-04-11 12:30 | 39.88269 | -17.89384 | 34400 ft | 435 kts | 247° |
| 2026-04-11 12:31 | 39.85440 | -17.96363 | 34403 ft | 436 kts | 247° |
| 2026-04-11 12:31 | 39.82614 | -18.03318 | 34403 ft | 436 kts | 246° |
| 2026-04-11 12:32 | 39.79765 | -18.10311 | 34405 ft | 436 kts | 246° |
| 2026-04-11 12:32 | 39.76926 | -18.17265 | 34405 ft | 436 kts | 246° |
| 2026-04-11 12:33 | 39.74070 | -18.24243 | 34410 ft | 436 kts | 246° |
| 2026-04-11 12:33 | 39.71227 | -18.31171 | 34408 ft | 436 kts | 246° |
| 2026-04-11 12:34 | 39.68375 | -18.38111 | 34410 ft | 437 kts | 246° |
| 2026-04-11 12:34 | 39.65513 | -18.45057 | 34414 ft | 437 kts | 246° |
| 2026-04-11 12:35 | 39.62642 | -18.52012 | 34410 ft | 437 kts | 246° |
| 2026-04-11 12:35 | 39.59772 | -18.58946 | 34408 ft | 437 kts | 246° |
| 2026-04-11 12:36 | 39.56897 | -18.65876 | 34406 ft | 437 kts | 246° |
| 2026-04-11 12:36 | 39.54031 | -18.72769 | 34407 ft | 438 kts | 246° |
| 2026-04-11 12:37 | 39.51129 | -18.79733 | 34410 ft | 440 kts | 246° |
| 2026-04-11 12:37 | 39.48232 | -18.86671 | 34407 ft | 440 kts | 246° |
| 2026-04-11 12:38 | 39.45329 | -18.93607 | 34411 ft | 441 kts | 246° |
| 2026-04-11 12:38 | 39.42418 | -19.00549 | 34410 ft | 441 kts | 246° |
| 2026-04-11 12:39 | 39.39482 | -19.07529 | 34416 ft | 440 kts | 246° |
| 2026-04-11 12:39 | 39.36552 | -19.14479 | 34423 ft | 441 kts | 246° |
| 2026-04-11 12:40 | 39.33620 | -19.21423 | 34427 ft | 442 kts | 246° |
| 2026-04-11 12:40 | 39.30660 | -19.28415 | 34430 ft | 442 kts | 246° |
| 2026-04-11 12:41 | 39.27729 | -19.35327 | 34426 ft | 442 kts | 246° |
| 2026-04-11 12:41 | 39.24775 | -19.42273 | 34425 ft | 442 kts | 246° |
| 2026-04-11 12:42 | 39.21821 | -19.49205 | 34419 ft | 443 kts | 246° |
| 2026-04-11 12:42 | 39.18858 | -19.56143 | 34419 ft | 443 kts | 246° |
| 2026-04-11 12:43 | 39.14396 | -19.66562 | 34418 ft | 445 kts | 245° |
| 2026-04-11 12:43 | 39.11401 | -19.73538 | 34422 ft | 445 kts | 245° |
| 2026-04-11 12:44 | 39.08413 | -19.80484 | 34418 ft | 445 kts | 245° |
| 2026-04-11 12:44 | 39.05418 | -19.87431 | 34415 ft | 446 kts | 245° |
| 2026-04-11 12:45 | 39.02428 | -19.94389 | 34423 ft | 445 kts | 246° |
| 2026-04-11 12:45 | 38.99822 | -20.01539 | 34429 ft | 443 kts | 251° |
| 2026-04-11 12:46 | 38.97758 | -20.08968 | 34432 ft | 441 kts | 256° |
| 2026-04-11 12:46 | 38.95899 | -20.16440 | 34439 ft | 440 kts | 256° |
| 2026-04-11 12:47 | 38.94028 | -20.23947 | 34430 ft | 441 kts | 256° |
| 2026-04-11 12:47 | 38.92164 | -20.31411 | 34438 ft | 441 kts | 256° |
| 2026-04-11 12:48 | 38.90284 | -20.38919 | 34440 ft | 441 kts | 256° |
| 2026-04-11 12:48 | 38.88410 | -20.46381 | 34436 ft | 442 kts | 256° |
| 2026-04-11 12:49 | 38.86531 | -20.53844 | 34440 ft | 442 kts | 256° |
| 2026-04-11 12:49 | 38.84638 | -20.61339 | 34443 ft | 442 kts | 256° |
| 2026-04-11 12:50 | 38.82746 | -20.68800 | 34450 ft | 442 kts | 256° |
| 2026-04-11 12:50 | 38.80837 | -20.76311 | 34450 ft | 441 kts | 255° |
| 2026-04-11 12:51 | 38.78942 | -20.83740 | 34442 ft | 441 kts | 256° |
| 2026-04-11 12:51 | 38.77029 | -20.91223 | 34445 ft | 441 kts | 255° |
| 2026-04-11 12:52 | 38.75133 | -20.98613 | 34440 ft | 441 kts | 256° |
| 2026-04-11 12:52 | 38.73212 | -21.06078 | 34443 ft | 442 kts | 256° |
| 2026-04-11 12:53 | 38.71287 | -21.13541 | 34445 ft | 442 kts | 256° |
| 2026-04-11 12:53 | 38.69356 | -21.20999 | 34446 ft | 442 kts | 256° |
| 2026-04-11 12:54 | 38.67433 | -21.28407 | 34450 ft | 441 kts | 256° |
| 2026-04-11 12:54 | 38.65489 | -21.35869 | 34449 ft | 442 kts | 256° |
| 2026-04-11 12:55 | 38.63546 | -21.43314 | 34455 ft | 443 kts | 256° |
| 2026-04-11 12:55 | 38.61601 | -21.50741 | 34462 ft | 443 kts | 256° |
| 2026-04-11 12:56 | 38.59629 | -21.58240 | 34458 ft | 443 kts | 256° |
| 2026-04-11 12:56 | 38.57673 | -21.65665 | 34462 ft | 444 kts | 255° |
| 2026-04-11 12:57 | 38.55700 | -21.73129 | 34458 ft | 444 kts | 256° |
| 2026-04-11 12:57 | 38.53739 | -21.80531 | 34462 ft | 444 kts | 256° |
| 2026-04-11 12:58 | 38.51755 | -21.87998 | 34465 ft | 443 kts | 256° |
| 2026-04-11 12:58 | 38.49762 | -21.95474 | 34467 ft | 443 kts | 255° |
| 2026-04-11 12:59 | 38.47781 | -22.02879 | 34467 ft | 443 kts | 256° |
| 2026-04-11 12:59 | 38.45785 | -22.10312 | 34456 ft | 443 kts | 256° |
| 2026-04-11 13:00 | 38.43795 | -22.17711 | 34457 ft | 443 kts | 256° |
| 2026-04-11 13:00 | 38.41803 | -22.25100 | 34455 ft | 443 kts | 256° |
| 2026-04-11 13:01 | 38.38781 | -22.36260 | 34458 ft | 444 kts | 257° |
| 2026-04-11 13:02 | 38.36773 | -22.43661 | 34464 ft | 443 kts | 257° |
| 2026-04-11 13:02 | 38.34750 | -22.51082 | 34463 ft | 444 kts | 257° |
| 2026-04-11 13:03 | 38.32735 | -22.58452 | 34460 ft | 443 kts | 257° |
| 2026-04-11 13:03 | 38.30709 | -22.65848 | 34465 ft | 443 kts | 257° |
| 2026-04-11 13:04 | 38.28673 | -22.73257 | 34460 ft | 442 kts | 257° |
| 2026-04-11 13:04 | 38.26648 | -22.80602 | 34461 ft | 442 kts | 257° |
| 2026-04-11 13:05 | 38.24612 | -22.87972 | 34463 ft | 443 kts | 257° |
| 2026-04-11 13:05 | 38.22562 | -22.95367 | 34464 ft | 443 kts | 258° |
| 2026-04-11 13:06 | 38.20513 | -23.02741 | 34467 ft | 443 kts | 258° |
| 2026-04-11 13:06 | 38.18470 | -23.10082 | 34470 ft | 442 kts | 258° |
| 2026-04-11 13:07 | 38.16409 | -23.17455 | 34473 ft | 442 kts | 258° |
| 2026-04-11 13:07 | 38.14352 | -23.24795 | 34472 ft | 442 kts | 258° |
| 2026-04-11 13:08 | 38.12294 | -23.32123 | 34468 ft | 442 kts | 258° |
| 2026-04-11 13:08 | 38.10226 | -23.39469 | 34477 ft | 443 kts | 258° |
| 2026-04-11 13:09 | 38.08161 | -23.46774 | 34471 ft | 443 kts | 258° |
| 2026-04-11 13:09 | 38.06074 | -23.54131 | 34476 ft | 442 kts | 258° |
| 2026-04-11 13:10 | 38.03995 | -23.61453 | 34482 ft | 442 kts | 258° |
| 2026-04-11 13:10 | 38.01908 | -23.68779 | 34488 ft | 443 kts | 257° |
| 2026-04-11 13:11 | 37.99810 | -23.76119 | 34486 ft | 443 kts | 257° |
| 2026-04-11 13:11 | 37.97711 | -23.83445 | 34490 ft | 442 kts | 257° |
| 2026-04-11 13:12 | 37.95609 | -23.90752 | 34496 ft | 442 kts | 257° |
| 2026-04-11 13:12 | 37.93502 | -23.98079 | 34483 ft | 441 kts | 257° |
| 2026-04-11 13:13 | 37.91407 | -24.05319 | 34479 ft | 440 kts | 257° |
| 2026-04-11 13:13 | 37.89290 | -24.12624 | 34473 ft | 440 kts | 258° |
| 2026-04-11 13:14 | 37.87183 | -24.19879 | 34472 ft | 441 kts | 258° |
| 2026-04-11 13:14 | 37.85072 | -24.27133 | 34464 ft | 440 kts | 258° |
| 2026-04-11 13:15 | 37.82949 | -24.34399 | 34465 ft | 441 kts | 258° |
| 2026-04-11 13:15 | 37.80815 | -24.41693 | 34469 ft | 441 kts | 258° |
| 2026-04-11 13:16 | 37.78680 | -24.48961 | 34455 ft | 440 kts | 258° |
| 2026-04-11 13:16 | 37.76552 | -24.56194 | 34470 ft | 438 kts | 258° |
| 2026-04-11 13:17 | 37.74426 | -24.63395 | 34478 ft | 439 kts | 259° |
| 2026-04-11 13:17 | 37.72291 | -24.70611 | 34477 ft | 439 kts | 258° |
| 2026-04-11 13:18 | 37.70156 | -24.77795 | 34474 ft | 438 kts | 258° |
| 2026-04-11 13:18 | 37.68020 | -24.84979 | 34475 ft | 438 kts | 258° |
| 2026-04-11 13:19 | 37.65871 | -24.92167 | 34474 ft | 439 kts | 259° |
| 2026-04-11 13:19 | 37.63731 | -24.99334 | 34483 ft | 439 kts | 259° |
| 2026-04-11 13:20 | 37.61575 | -25.06518 | 34478 ft | 438 kts | 259° |
| 2026-04-11 13:20 | 37.59425 | -25.13675 | 34483 ft | 438 kts | 259° |
| 2026-04-11 13:21 | 37.57267 | -25.20851 | 34480 ft | 438 kts | 259° |
| 2026-04-11 13:21 | 37.55103 | -25.28008 | 34490 ft | 438 kts | 259° |
| 2026-04-11 13:22 | 37.52943 | -25.35138 | 34480 ft | 438 kts | 259° |
| 2026-04-11 13:22 | 37.50773 | -25.42282 | 34485 ft | 437 kts | 259° |
| 2026-04-11 13:23 | 37.48594 | -25.49443 | 34486 ft | 438 kts | 258° |
| 2026-04-11 13:23 | 37.46415 | -25.56576 | 34487 ft | 438 kts | 259° |
| 2026-04-11 13:24 | 37.44243 | -25.63685 | 34490 ft | 436 kts | 259° |
| 2026-04-11 13:24 | 37.42051 | -25.70833 | 34491 ft | 437 kts | 258° |
| 2026-04-11 13:25 | 37.39872 | -25.77910 | 34494 ft | 438 kts | 258° |
| 2026-04-11 13:25 | 37.37660 | -25.85084 | 34496 ft | 437 kts | 258° |
| 2026-04-11 13:26 | 37.35466 | -25.92184 | 34498 ft | 437 kts | 258° |
| 2026-04-11 13:26 | 37.33254 | -25.99309 | 34497 ft | 437 kts | 258° |
| 2026-04-11 13:27 | 37.31057 | -26.06389 | 34498 ft | 438 kts | 258° |
| 2026-04-11 13:27 | 37.28845 | -26.13490 | 34497 ft | 437 kts | 258° |
| 2026-04-11 13:28 | 37.26620 | -26.20616 | 34498 ft | 439 kts | 258° |
| 2026-04-11 13:28 | 37.24404 | -26.27687 | 34501 ft | 437 kts | 258° |
| 2026-04-11 13:29 | 37.22176 | -26.34792 | 34497 ft | 437 kts | 258° |
| 2026-04-11 13:29 | 37.19943 | -26.41895 | 34496 ft | 437 kts | 258° |
| 2026-04-11 13:30 | 37.17696 | -26.49009 | 34493 ft | 438 kts | 258° |
| 2026-04-11 13:30 | 37.15467 | -26.56066 | 34492 ft | 438 kts | 257° |
| 2026-04-11 13:31 | 37.13219 | -26.63152 | 34491 ft | 437 kts | 258° |
| 2026-04-11 13:31 | 37.10973 | -26.70225 | 34494 ft | 437 kts | 257° |
| 2026-04-11 13:32 | 37.08723 | -26.77273 | 34491 ft | 438 kts | 257° |
| 2026-04-11 13:32 | 37.06475 | -26.84329 | 34491 ft | 438 kts | 257° |
| 2026-04-11 13:33 | 37.04200 | -26.91438 | 34490 ft | 438 kts | 257° |
| 2026-04-11 13:33 | 37.01942 | -26.98468 | 34493 ft | 439 kts | 257° |
| 2026-04-11 13:34 | 36.99668 | -27.05542 | 34493 ft | 438 kts | 257° |
| 2026-04-11 13:34 | 36.97406 | -27.12556 | 34495 ft | 439 kts | 258° |
| 2026-04-11 13:35 | 36.95107 | -27.19676 | 34501 ft | 440 kts | 257° |
| 2026-04-11 13:35 | 36.92800 | -27.26805 | 34503 ft | 440 kts | 257° |
| 2026-04-11 13:36 | 36.90493 | -27.33899 | 34500 ft | 440 kts | 257° |
| 2026-04-11 13:36 | 36.88193 | -27.40965 | 34499 ft | 440 kts | 257° |
| 2026-04-11 13:37 | 36.85893 | -27.48016 | 34509 ft | 441 kts | 256° |
| 2026-04-11 13:37 | 36.83571 | -27.55119 | 34503 ft | 439 kts | 256° |
| 2026-04-11 13:38 | 36.81244 | -27.62205 | 34504 ft | 441 kts | 256° |
| 2026-04-11 13:38 | 36.78925 | -27.69253 | 34503 ft | 439 kts | 256° |
| 2026-04-11 13:39 | 36.76600 | -27.76314 | 34500 ft | 442 kts | 256° |
| 2026-04-11 13:39 | 36.74249 | -27.83432 | 34499 ft | 441 kts | 255° |
| 2026-04-11 13:40 | 36.71930 | -27.90437 | 34503 ft | 440 kts | 255° |
| 2026-04-11 13:40 | 36.69587 | -27.97481 | 34500 ft | 442 kts | 256° |
| 2026-04-11 13:41 | 36.67237 | -28.04546 | 34503 ft | 443 kts | 255° |
| 2026-04-11 13:41 | 36.64881 | -28.11612 | 34503 ft | 443 kts | 255° |
| 2026-04-11 13:42 | 36.62525 | -28.18661 | 34501 ft | 440 kts | 255° |
| 2026-04-11 13:42 | 36.60173 | -28.25682 | 34502 ft | 442 kts | 255° |
| 2026-04-11 13:43 | 36.57796 | -28.32752 | 34501 ft | 442 kts | 255° |
| 2026-04-11 13:43 | 36.55427 | -28.39784 | 34497 ft | 442 kts | 255° |
| 2026-04-11 13:44 | 36.53050 | -28.46834 | 34500 ft | 444 kts | 255° |
| 2026-04-11 13:44 | 36.50662 | -28.53895 | 34496 ft | 443 kts | 255° |
| 2026-04-11 13:45 | 36.48266 | -28.60954 | 34498 ft | 447 kts | 255° |
| 2026-04-11 13:45 | 36.45859 | -28.68034 | 34507 ft | 445 kts | 255° |
| 2026-04-11 13:46 | 36.43455 | -28.75097 | 34509 ft | 448 kts | 255° |
| 2026-04-11 13:46 | 36.41030 | -28.82200 | 34506 ft | 447 kts | 254° |
| 2026-04-11 13:47 | 36.38606 | -28.89290 | 34504 ft | 447 kts | 254° |
| 2026-04-11 13:47 | 36.36169 | -28.96384 | 34500 ft | 446 kts | 254° |
| 2026-04-11 13:48 | 36.33725 | -29.03495 | 34502 ft | 448 kts | 254° |
| 2026-04-11 13:48 | 36.31292 | -29.10544 | 34494 ft | 449 kts | 254° |
| 2026-04-11 13:49 | 36.28825 | -29.17686 | 34496 ft | 447 kts | 254° |
| 2026-04-11 13:49 | 36.26379 | -29.24750 | 34495 ft | 447 kts | 253° |
| 2026-04-11 13:50 | 36.23917 | -29.31848 | 34489 ft | 449 kts | 254° |
| 2026-04-11 13:50 | 36.21450 | -29.38945 | 34491 ft | 451 kts | 254° |
| 2026-04-11 13:51 | 36.18970 | -29.46048 | 34494 ft | 452 kts | 254° |
| 2026-04-11 13:51 | 36.16482 | -29.53171 | 34493 ft | 452 kts | 253° |
| 2026-04-11 13:52 | 36.13992 | -29.60276 | 34491 ft | 452 kts | 254° |
| 2026-04-11 13:52 | 36.11474 | -29.67444 | 34496 ft | 453 kts | 253° |
| 2026-04-11 13:53 | 36.08978 | -29.74541 | 34492 ft | 452 kts | 253° |
| 2026-04-11 13:53 | 36.06458 | -29.81687 | 34492 ft | 454 kts | 253° |
| 2026-04-11 13:54 | 36.03944 | -29.88810 | 34491 ft | 455 kts | 253° |
| 2026-04-11 13:54 | 36.01397 | -29.95999 | 34490 ft | 456 kts | 253° |
| 2026-04-11 13:55 | 35.98871 | -30.03171 | 34494 ft | 455 kts | 254° |
| 2026-04-11 13:55 | 35.96411 | -30.10354 | 34497 ft | 455 kts | 254° |
| 2026-04-11 13:56 | 35.93949 | -30.17542 | 34498 ft | 456 kts | 253° |
| 2026-04-11 13:56 | 35.91492 | -30.24694 | 34503 ft | 455 kts | 253° |
| 2026-04-11 13:57 | 35.89002 | -30.31914 | 34497 ft | 457 kts | 254° |
| 2026-04-11 13:57 | 35.86513 | -30.39119 | 34493 ft | 457 kts | 253° |
| 2026-04-11 13:58 | 35.84025 | -30.46298 | 34493 ft | 457 kts | 253° |
| 2026-04-11 13:58 | 35.81532 | -30.53475 | 34491 ft | 457 kts | 253° |
| 2026-04-11 13:59 | 35.79030 | -30.60664 | 34486 ft | 457 kts | 253° |
| 2026-04-11 13:59 | 35.76526 | -30.67845 | 34489 ft | 458 kts | 253° |
| 2026-04-11 14:00 | 35.74006 | -30.75050 | 34486 ft | 459 kts | 253° |
| 2026-04-11 14:00 | 35.70214 | -30.85862 | 34488 ft | 459 kts | 253° |
| 2026-04-11 14:01 | 35.67688 | -30.93044 | 34488 ft | 460 kts | 253° |
| 2026-04-11 14:01 | 35.65156 | -31.00224 | 34487 ft | 460 kts | 253° |
| 2026-04-11 14:02 | 35.62607 | -31.07437 | 34488 ft | 460 kts | 252° |
| 2026-04-11 14:02 | 35.60055 | -31.14645 | 34488 ft | 460 kts | 252° |
| 2026-04-11 14:03 | 35.57509 | -31.21812 | 34492 ft | 461 kts | 252° |
| 2026-04-11 14:03 | 35.54922 | -31.29080 | 34499 ft | 462 kts | 252° |
| 2026-04-11 14:04 | 35.52364 | -31.36251 | 34495 ft | 461 kts | 252° |
| 2026-04-11 14:04 | 35.49785 | -31.43470 | 34491 ft | 463 kts | 252° |
| 2026-04-11 14:05 | 35.47196 | -31.50693 | 34492 ft | 463 kts | 252° |
| 2026-04-11 14:05 | 35.44603 | -31.57909 | 34491 ft | 463 kts | 252° |
| 2026-04-11 14:06 | 35.42009 | -31.65117 | 34487 ft | 463 kts | 252° |
| 2026-04-11 14:06 | 35.39383 | -31.72397 | 34490 ft | 465 kts | 252° |
| 2026-04-11 14:07 | 35.36776 | -31.79607 | 34486 ft | 465 kts | 252° |
| 2026-04-11 14:07 | 35.34131 | -31.86902 | 34486 ft | 465 kts | 252° |
| 2026-04-11 14:08 | 35.31504 | -31.94133 | 34487 ft | 466 kts | 251° |
| 2026-04-11 14:08 | 35.28869 | -32.01373 | 34489 ft | 467 kts | 252° |
| 2026-04-11 14:09 | 35.26205 | -32.08672 | 34742 ft | 472 kts | 251° |
| 2026-04-11 14:09 | 35.24862 | -32.12344 | 35119 ft | 470 kts | 251° |
| 2026-04-11 14:09 | 35.23539 | -32.15953 | 35460 ft | 469 kts | 251° |
| 2026-04-11 14:10 | 35.22205 | -32.19595 | 35725 ft | 470 kts | 251° |
| 2026-04-11 14:10 | 35.20870 | -32.23231 | 35973 ft | 470 kts | 251° |
| 2026-04-11 14:10 | 35.19539 | -32.26853 | 36268 ft | 469 kts | 251° |
| 2026-04-11 14:10 | 35.18188 | -32.30531 | 36480 ft | 470 kts | 252° |
| 2026-04-11 14:11 | 35.15522 | -32.37767 | 36488 ft | 471 kts | 251° |
| 2026-04-11 14:11 | 35.12838 | -32.45040 | 36489 ft | 470 kts | 251° |
| 2026-04-11 14:12 | 35.10160 | -32.52282 | 36489 ft | 471 kts | 251° |
| 2026-04-11 14:12 | 35.07470 | -32.59530 | 36490 ft | 471 kts | 251° |
| 2026-04-11 14:13 | 35.04765 | -32.66811 | 36490 ft | 472 kts | 251° |
| 2026-04-11 14:13 | 35.02069 | -32.74050 | 36490 ft | 472 kts | 251° |
| 2026-04-11 14:14 | 34.99343 | -32.81344 | 36481 ft | 472 kts | 251° |
| 2026-04-11 14:14 | 34.96619 | -32.88624 | 36471 ft | 473 kts | 251° |
| 2026-04-11 14:15 | 34.93897 | -32.95882 | 36477 ft | 474 kts | 251° |
| 2026-04-11 14:15 | 34.91160 | -33.03169 | 36481 ft | 473 kts | 250° |
| 2026-04-11 14:16 | 34.88411 | -33.10464 | 36482 ft | 475 kts | 250° |
| 2026-04-11 14:16 | 34.85648 | -33.17778 | 36481 ft | 475 kts | 250° |
| 2026-04-11 14:17 | 34.82894 | -33.25050 | 36484 ft | 475 kts | 250° |
| 2026-04-11 14:17 | 34.80136 | -33.32328 | 36482 ft | 477 kts | 250° |
| 2026-04-11 14:18 | 34.77356 | -33.39637 | 36487 ft | 476 kts | 250° |
| 2026-04-11 14:18 | 34.74593 | -33.46893 | 36484 ft | 476 kts | 250° |
| 2026-04-11 14:19 | 34.71791 | -33.54227 | 36484 ft | 477 kts | 250° |
| 2026-04-11 14:19 | 34.69008 | -33.61502 | 36487 ft | 477 kts | 250° |
| 2026-04-11 14:20 | 34.66218 | -33.68769 | 36485 ft | 477 kts | 250° |
| 2026-04-11 14:20 | 34.63414 | -33.76068 | 36486 ft | 479 kts | 249° |
| 2026-04-11 14:21 | 34.60603 | -33.83364 | 36483 ft | 479 kts | 249° |
| 2026-04-11 14:21 | 34.57778 | -33.90678 | 36485 ft | 479 kts | 249° |
| 2026-04-11 14:22 | 34.54950 | -33.97987 | 36482 ft | 480 kts | 249° |
| 2026-04-11 14:22 | 34.52107 | -34.05316 | 36480 ft | 480 kts | 249° |
| 2026-04-11 14:23 | 34.49262 | -34.12633 | 36478 ft | 480 kts | 249° |
| 2026-04-11 14:23 | 34.46407 | -34.19961 | 36480 ft | 480 kts | 249° |
| 2026-04-11 14:24 | 34.43559 | -34.27258 | 36478 ft | 480 kts | 249° |
| 2026-04-11 14:24 | 34.40702 | -34.34559 | 36477 ft | 481 kts | 249° |
| 2026-04-11 14:25 | 34.37845 | -34.41843 | 36477 ft | 480 kts | 249° |
| 2026-04-11 14:25 | 34.34988 | -34.49108 | 36477 ft | 480 kts | 249° |
| 2026-04-11 14:26 | 34.32106 | -34.56427 | 36475 ft | 480 kts | 249° |
| 2026-04-11 14:26 | 34.29252 | -34.63657 | 36477 ft | 479 kts | 249° |
| 2026-04-11 14:27 | 34.26378 | -34.70920 | 36481 ft | 480 kts | 248° |
| 2026-04-11 14:27 | 34.23504 | -34.78169 | 36488 ft | 479 kts | 248° |
| 2026-04-11 14:28 | 34.20613 | -34.85444 | 36490 ft | 480 kts | 248° |
| 2026-04-11 14:28 | 34.17729 | -34.92688 | 36490 ft | 480 kts | 248° |
| 2026-04-11 14:29 | 34.14838 | -34.99933 | 36489 ft | 481 kts | 248° |
| 2026-04-11 14:29 | 34.11937 | -35.07190 | 36491 ft | 481 kts | 248° |
| 2026-04-11 14:30 | 34.09037 | -35.14420 | 36487 ft | 480 kts | 248° |
| 2026-04-11 14:30 | 34.06124 | -35.21674 | 36486 ft | 480 kts | 248° |
| 2026-04-11 14:31 | 34.03228 | -35.28867 | 36480 ft | 480 kts | 248° |
| 2026-04-11 14:31 | 34.00310 | -35.36101 | 36470 ft | 480 kts | 248° |
| 2026-04-11 14:32 | 33.97395 | -35.43314 | 36469 ft | 481 kts | 248° |
| 2026-04-11 14:32 | 33.94465 | -35.50555 | 36464 ft | 482 kts | 248° |
| 2026-04-11 14:33 | 33.91508 | -35.57832 | 36468 ft | 483 kts | 248° |
| 2026-04-11 14:33 | 33.88564 | -35.65072 | 36467 ft | 484 kts | 247° |
| 2026-04-11 14:34 | 33.85615 | -35.72304 | 36467 ft | 483 kts | 247° |
| 2026-04-11 14:34 | 33.82654 | -35.79550 | 36466 ft | 483 kts | 246° |
| 2026-04-11 14:35 | 33.79675 | -35.86825 | 36468 ft | 484 kts | 247° |
| 2026-04-11 14:35 | 33.76714 | -35.94045 | 36471 ft | 486 kts | 246° |
| 2026-04-11 14:36 | 33.73730 | -36.01301 | 36475 ft | 486 kts | 246° |
| 2026-04-11 14:36 | 33.70734 | -36.08570 | 36479 ft | 486 kts | 246° |
| 2026-04-11 14:37 | 33.67746 | -36.15810 | 36484 ft | 486 kts | 246° |
| 2026-04-11 14:37 | 33.64731 | -36.23093 | 36482 ft | 486 kts | 246° |
| 2026-04-11 14:38 | 33.61723 | -36.30348 | 36482 ft | 487 kts | 246° |
| 2026-04-11 14:38 | 33.58707 | -36.37606 | 36477 ft | 487 kts | 246° |
| 2026-04-11 14:39 | 33.55700 | -36.44828 | 36471 ft | 488 kts | 246° |
| 2026-04-11 14:39 | 33.52673 | -36.52079 | 36464 ft | 489 kts | 246° |
| 2026-04-11 14:40 | 33.49642 | -36.59330 | 36461 ft | 488 kts | 246° |
| 2026-04-11 14:40 | 33.46578 | -36.66643 | 36455 ft | 489 kts | 245° |
| 2026-04-11 14:41 | 33.43527 | -36.73910 | 36452 ft | 489 kts | 245° |
| 2026-04-11 14:41 | 33.40480 | -36.81146 | 36454 ft | 489 kts | 245° |
| 2026-04-11 14:42 | 33.37414 | -36.88418 | 36457 ft | 489 kts | 245° |
| 2026-04-11 14:43 | 33.32829 | -36.99265 | 36455 ft | 489 kts | 245° |
| 2026-04-11 14:43 | 33.29756 | -37.06515 | 36453 ft | 490 kts | 245° |
| 2026-04-11 14:44 | 33.26677 | -37.13763 | 36452 ft | 490 kts | 245° |
| 2026-04-11 14:44 | 33.23592 | -37.21011 | 36452 ft | 490 kts | 245° |
| 2026-04-11 14:45 | 33.20511 | -37.28239 | 36449 ft | 490 kts | 245° |
| 2026-04-11 14:45 | 33.17415 | -37.35480 | 36452 ft | 490 kts | 245° |
| 2026-04-11 14:46 | 33.14322 | -37.42703 | 36452 ft | 490 kts | 245° |
| 2026-04-11 14:46 | 33.11231 | -37.49902 | 36459 ft | 490 kts | 245° |
| 2026-04-11 14:47 | 33.08115 | -37.57149 | 36457 ft | 490 kts | 245° |
| 2026-04-11 14:47 | 33.05005 | -37.64369 | 36457 ft | 491 kts | 245° |
| 2026-04-11 14:48 | 33.01892 | -37.71581 | 36453 ft | 491 kts | 244° |
| 2026-04-11 14:48 | 32.98768 | -37.78801 | 36448 ft | 491 kts | 244° |
| 2026-04-11 14:49 | 32.95653 | -37.85981 | 36445 ft | 491 kts | 244° |
| 2026-04-11 14:49 | 32.90940 | -37.96825 | 36445 ft | 492 kts | 244° |
| 2026-04-11 14:50 | 32.87804 | -38.04022 | 36442 ft | 491 kts | 244° |
| 2026-04-11 14:50 | 32.84673 | -38.11196 | 36444 ft | 491 kts | 244° |
| 2026-04-11 14:51 | 32.81531 | -38.18377 | 36441 ft | 491 kts | 244° |
| 2026-04-11 14:51 | 32.78386 | -38.25549 | 36442 ft | 491 kts | 244° |
| 2026-04-11 14:52 | 32.75234 | -38.32724 | 36437 ft | 491 kts | 244° |
| 2026-04-11 14:52 | 32.72064 | -38.39925 | 36438 ft | 491 kts | 244° |
| 2026-04-11 14:53 | 32.68911 | -38.47076 | 36437 ft | 490 kts | 244° |
| 2026-04-11 14:53 | 32.65754 | -38.54222 | 36431 ft | 490 kts | 244° |
| 2026-04-11 14:54 | 32.62593 | -38.61360 | 36442 ft | 491 kts | 244° |
| 2026-04-11 14:54 | 32.59407 | -38.68540 | 36437 ft | 491 kts | 243° |
| 2026-04-11 14:55 | 32.56244 | -38.75655 | 36438 ft | 491 kts | 243° |
| 2026-04-11 14:55 | 32.53052 | -38.82819 | 36439 ft | 491 kts | 243° |
| 2026-04-11 14:56 | 32.49887 | -38.89915 | 36437 ft | 490 kts | 243° |
| 2026-04-11 14:56 | 32.46695 | -38.97055 | 36436 ft | 490 kts | 243° |
| 2026-04-11 14:57 | 32.43507 | -39.04167 | 36430 ft | 490 kts | 243° |
| 2026-04-11 14:57 | 32.40318 | -39.11270 | 36418 ft | 491 kts | 243° |
| 2026-04-11 14:58 | 32.37117 | -39.18381 | 36414 ft | 490 kts | 243° |
| 2026-04-11 14:58 | 32.33915 | -39.25487 | 36412 ft | 490 kts | 243° |
| 2026-04-11 14:59 | 32.30714 | -39.32582 | 36410 ft | 490 kts | 243° |
| 2026-04-11 14:59 | 32.27514 | -39.39655 | 36409 ft | 490 kts | 243° |
| 2026-04-11 15:00 | 32.24318 | -39.46704 | 36413 ft | 490 kts | 243° |
| 2026-04-11 15:00 | 32.21110 | -39.53770 | 36407 ft | 490 kts | 243° |
| 2026-04-11 15:01 | 32.17879 | -39.60867 | 36415 ft | 490 kts | 243° |
| 2026-04-11 15:01 | 32.14669 | -39.67915 | 36416 ft | 490 kts | 243° |
| 2026-04-11 15:02 | 32.11437 | -39.74989 | 36415 ft | 490 kts | 242° |
| 2026-04-11 15:02 | 32.08208 | -39.82051 | 36414 ft | 490 kts | 243° |
| 2026-04-11 15:03 | 32.04989 | -39.89080 | 36410 ft | 490 kts | 243° |
| 2026-04-11 15:03 | 32.01753 | -39.96127 | 36410 ft | 489 kts | 242° |
| 2026-04-11 15:04 | 31.98810 | -40.03301 | 36406 ft | 489 kts | 248° |
| 2026-04-11 15:04 | 31.96236 | -40.10674 | 36403 ft | 488 kts | 249° |
| 2026-04-11 15:05 | 31.93665 | -40.18074 | 36406 ft | 488 kts | 249° |
| 2026-04-11 15:05 | 31.91097 | -40.25453 | 36406 ft | 488 kts | 249° |
| 2026-04-11 15:06 | 31.88529 | -40.32807 | 36402 ft | 488 kts | 249° |
| 2026-04-11 15:06 | 31.85960 | -40.40139 | 36405 ft | 487 kts | 249° |
| 2026-04-11 15:07 | 31.83372 | -40.47511 | 36394 ft | 487 kts | 249° |
| 2026-04-11 15:07 | 31.80783 | -40.54867 | 36385 ft | 487 kts | 249° |
| 2026-04-11 15:08 | 31.78201 | -40.62190 | 36394 ft | 487 kts | 249° |
| 2026-04-11 15:08 | 31.75594 | -40.69570 | 36399 ft | 487 kts | 249° |
| 2026-04-11 15:09 | 31.73002 | -40.76885 | 36400 ft | 487 kts | 249° |
| 2026-04-11 15:09 | 31.70413 | -40.84178 | 36398 ft | 487 kts | 249° |
| 2026-04-11 15:10 | 31.67804 | -40.91512 | 36394 ft | 486 kts | 249° |
| 2026-04-11 15:10 | 31.65202 | -40.98809 | 36388 ft | 486 kts | 249° |
| 2026-04-11 15:11 | 31.62590 | -41.06124 | 36382 ft | 486 kts | 249° |
| 2026-04-11 15:11 | 31.59968 | -41.13451 | 36381 ft | 486 kts | 249° |
| 2026-04-11 15:12 | 31.57356 | -41.20725 | 36384 ft | 486 kts | 249° |
| 2026-04-11 15:12 | 31.54750 | -41.27969 | 36380 ft | 486 kts | 249° |
| 2026-04-11 15:13 | 31.52123 | -41.35263 | 36382 ft | 486 kts | 249° |
| 2026-04-11 15:13 | 31.49488 | -41.42560 | 36383 ft | 486 kts | 249° |
| 2026-04-11 15:14 | 31.46864 | -41.49809 | 36380 ft | 486 kts | 250° |
| 2026-04-11 15:14 | 31.44219 | -41.57104 | 36379 ft | 485 kts | 249° |
| 2026-04-11 15:15 | 31.41584 | -41.64359 | 36371 ft | 486 kts | 249° |
| 2026-04-11 15:15 | 31.38937 | -41.71621 | 36371 ft | 485 kts | 249° |
| 2026-04-11 15:16 | 31.36296 | -41.78858 | 36368 ft | 485 kts | 249° |
| 2026-04-11 15:16 | 31.33649 | -41.86095 | 36371 ft | 485 kts | 249° |
| 2026-04-11 15:17 | 31.31010 | -41.93294 | 36369 ft | 485 kts | 249° |
| 2026-04-11 15:17 | 31.28345 | -42.00554 | 36370 ft | 485 kts | 249° |
| 2026-04-11 15:18 | 31.25692 | -42.07757 | 36367 ft | 485 kts | 249° |
| 2026-04-11 15:18 | 31.23034 | -42.14970 | 36363 ft | 485 kts | 249° |
| 2026-04-11 15:19 | 31.20357 | -42.22215 | 36361 ft | 484 kts | 249° |
| 2026-04-11 15:19 | 31.17704 | -42.29380 | 36358 ft | 484 kts | 249° |
| 2026-04-11 15:20 | 31.15011 | -42.36632 | 36352 ft | 485 kts | 249° |
| 2026-04-11 15:20 | 31.12324 | -42.43858 | 36347 ft | 485 kts | 249° |
| 2026-04-11 15:21 | 31.09627 | -42.51093 | 36348 ft | 484 kts | 249° |
| 2026-04-11 15:21 | 31.06941 | -42.58290 | 36346 ft | 484 kts | 249° |
| 2026-04-11 15:22 | 31.04256 | -42.65468 | 36345 ft | 485 kts | 248° |
| 2026-04-11 15:22 | 31.01568 | -42.72639 | 36345 ft | 485 kts | 248° |
| 2026-04-11 15:23 | 30.98861 | -42.79840 | 36346 ft | 485 kts | 248° |
| 2026-04-11 15:23 | 30.96156 | -42.87022 | 36348 ft | 484 kts | 248° |
| 2026-04-11 15:24 | 30.93457 | -42.94177 | 36355 ft | 484 kts | 248° |
| 2026-04-11 15:24 | 30.90748 | -43.01345 | 36363 ft | 484 kts | 248° |
| 2026-04-11 15:25 | 30.88038 | -43.08495 | 36361 ft | 484 kts | 248° |
| 2026-04-11 15:25 | 30.85331 | -43.15630 | 36360 ft | 484 kts | 248° |
| 2026-04-11 15:26 | 30.82608 | -43.22787 | 36359 ft | 483 kts | 249° |
| 2026-04-11 15:26 | 30.79898 | -43.29900 | 36356 ft | 483 kts | 249° |
| 2026-04-11 15:27 | 30.77172 | -43.37036 | 36354 ft | 483 kts | 249° |
| 2026-04-11 15:27 | 30.74461 | -43.44127 | 36354 ft | 482 kts | 249° |
| 2026-04-11 15:28 | 30.71721 | -43.51273 | 36350 ft | 482 kts | 249° |
| 2026-04-11 15:28 | 30.68996 | -43.58367 | 36344 ft | 482 kts | 249° |
| 2026-04-11 15:29 | 30.66278 | -43.65430 | 36346 ft | 482 kts | 248° |
| 2026-04-11 15:29 | 30.63548 | -43.72507 | 36344 ft | 481 kts | 248° |
| 2026-04-11 15:30 | 30.60806 | -43.79607 | 36341 ft | 481 kts | 249° |
| 2026-04-11 15:30 | 30.58073 | -43.86666 | 36336 ft | 481 kts | 249° |
| 2026-04-11 15:31 | 30.55342 | -43.93710 | 36337 ft | 481 kts | 248° |
| 2026-04-11 15:31 | 30.52596 | -44.00773 | 36332 ft | 481 kts | 248° |
| 2026-04-11 15:32 | 30.49836 | -44.07857 | 36336 ft | 480 kts | 249° |
| 2026-04-11 15:32 | 30.47102 | -44.14863 | 36334 ft | 480 kts | 249° |
| 2026-04-11 15:33 | 30.44342 | -44.21924 | 36332 ft | 480 kts | 249° |
| 2026-04-11 15:33 | 30.41593 | -44.28945 | 36328 ft | 480 kts | 249° |
| 2026-04-11 15:34 | 30.38835 | -44.35972 | 36328 ft | 480 kts | 249° |
| 2026-04-11 15:34 | 30.36073 | -44.42997 | 36329 ft | 480 kts | 249° |
| 2026-04-11 15:35 | 30.33326 | -44.49965 | 36328 ft | 479 kts | 249° |
| 2026-04-11 15:35 | 30.30555 | -44.56987 | 36328 ft | 479 kts | 249° |
| 2026-04-11 15:36 | 30.27789 | -44.63985 | 36324 ft | 479 kts | 249° |
| 2026-04-11 15:36 | 30.25001 | -44.71019 | 36324 ft | 479 kts | 248° |
| 2026-04-11 15:37 | 30.22244 | -44.77964 | 36325 ft | 478 kts | 248° |
| 2026-04-11 15:37 | 30.19465 | -44.84950 | 36325 ft | 478 kts | 248° |
| 2026-04-11 15:38 | 30.16671 | -44.91962 | 36325 ft | 478 kts | 248° |
| 2026-04-11 15:38 | 30.13888 | -44.98931 | 36322 ft | 478 kts | 248° |
| 2026-04-11 15:39 | 30.11099 | -45.05909 | 36315 ft | 478 kts | 248° |
| 2026-04-11 15:39 | 30.08312 | -45.12859 | 36302 ft | 478 kts | 248° |
| 2026-04-11 15:40 | 30.05539 | -45.19764 | 36302 ft | 478 kts | 248° |
| 2026-04-11 15:40 | 30.02746 | -45.26705 | 36298 ft | 477 kts | 248° |
| 2026-04-11 15:41 | 29.99960 | -45.33622 | 36298 ft | 477 kts | 248° |
| 2026-04-11 15:41 | 29.97166 | -45.40543 | 36302 ft | 477 kts | 248° |
| 2026-04-11 15:42 | 29.94362 | -45.47475 | 36301 ft | 477 kts | 248° |
| 2026-04-11 15:43 | 29.90150 | -45.57862 | 36294 ft | 477 kts | 248° |
| 2026-04-11 15:43 | 29.87356 | -45.64736 | 36299 ft | 477 kts | 248° |
| 2026-04-11 15:44 | 29.84539 | -45.71656 | 36302 ft | 477 kts | 248° |
| 2026-04-11 15:44 | 29.81720 | -45.78567 | 36295 ft | 477 kts | 248° |
| 2026-04-11 15:45 | 29.78896 | -45.85481 | 36294 ft | 477 kts | 247° |
| 2026-04-11 15:45 | 29.76085 | -45.92345 | 36300 ft | 477 kts | 248° |
| 2026-04-11 15:46 | 29.73255 | -45.99244 | 36298 ft | 477 kts | 248° |
| 2026-04-11 15:46 | 29.70413 | -46.06162 | 36295 ft | 477 kts | 247° |
| 2026-04-11 15:47 | 29.67602 | -46.12991 | 36296 ft | 477 kts | 248° |
| 2026-04-11 15:47 | 29.64753 | -46.19899 | 36301 ft | 476 kts | 247° |
| 2026-04-11 15:48 | 29.61918 | -46.26763 | 36301 ft | 477 kts | 247° |
| 2026-04-11 15:48 | 29.59068 | -46.33644 | 36299 ft | 476 kts | 247° |
| 2026-04-11 15:49 | 29.56232 | -46.40489 | 36302 ft | 476 kts | 247° |
| 2026-04-11 15:49 | 29.53398 | -46.47309 | 36299 ft | 476 kts | 247° |
| 2026-04-11 15:50 | 29.50547 | -46.54163 | 36295 ft | 476 kts | 247° |
| 2026-04-11 15:50 | 29.47696 | -46.61002 | 36296 ft | 476 kts | 247° |
| 2026-04-11 15:51 | 29.44850 | -46.67817 | 36296 ft | 476 kts | 246° |
| 2026-04-11 15:51 | 29.41981 | -46.74672 | 36297 ft | 476 kts | 246° |
| 2026-04-11 15:52 | 29.39127 | -46.81482 | 36301 ft | 475 kts | 247° |
| 2026-04-11 15:52 | 29.36274 | -46.88276 | 36298 ft | 475 kts | 247° |
| 2026-04-11 15:53 | 29.33405 | -46.95100 | 36300 ft | 474 kts | 246° |
| 2026-04-11 15:53 | 29.30548 | -47.01880 | 36302 ft | 474 kts | 247° |
| 2026-04-11 15:54 | 29.27693 | -47.08646 | 36302 ft | 474 kts | 247° |
| 2026-04-11 15:54 | 29.24826 | -47.15421 | 36301 ft | 474 kts | 246° |
| 2026-04-11 15:55 | 29.21944 | -47.22230 | 36298 ft | 474 kts | 247° |
| 2026-04-11 15:55 | 29.19088 | -47.28961 | 36300 ft | 474 kts | 247° |
| 2026-04-11 15:56 | 29.16208 | -47.35734 | 36293 ft | 474 kts | 247° |
| 2026-04-11 15:56 | 29.13328 | -47.42501 | 36285 ft | 473 kts | 247° |
| 2026-04-11 15:57 | 29.10448 | -47.49253 | 36283 ft | 473 kts | 247° |
| 2026-04-11 15:57 | 29.07578 | -47.55967 | 36282 ft | 472 kts | 247° |
| 2026-04-11 15:58 | 29.04694 | -47.62708 | 36282 ft | 472 kts | 246° |
| 2026-04-11 15:58 | 29.01805 | -47.69449 | 36280 ft | 473 kts | 246° |
| 2026-04-11 15:59 | 28.98918 | -47.76172 | 36282 ft | 472 kts | 246° |
| 2026-04-11 15:59 | 28.96023 | -47.82901 | 36282 ft | 472 kts | 246° |
| 2026-04-11 16:00 | 28.93147 | -47.89571 | 36282 ft | 472 kts | 246° |
| 2026-04-11 16:00 | 28.90256 | -47.96269 | 36281 ft | 471 kts | 246° |
| 2026-04-11 16:01 | 28.87353 | -48.02981 | 36282 ft | 471 kts | 246° |
| 2026-04-11 16:01 | 28.84458 | -48.09665 | 36283 ft | 471 kts | 246° |
| 2026-04-11 16:02 | 28.81567 | -48.16330 | 36283 ft | 471 kts | 246° |
| 2026-04-11 16:02 | 28.78670 | -48.22996 | 36282 ft | 471 kts | 246° |
| 2026-04-11 16:03 | 28.75752 | -48.29699 | 36282 ft | 471 kts | 246° |
| 2026-04-11 16:03 | 28.72863 | -48.36323 | 36282 ft | 470 kts | 246° |
| 2026-04-11 16:04 | 28.69952 | -48.42984 | 36279 ft | 470 kts | 246° |
| 2026-04-11 16:04 | 28.67031 | -48.49660 | 36277 ft | 469 kts | 246° |
| 2026-04-11 16:05 | 28.64143 | -48.56251 | 36275 ft | 469 kts | 246° |
| 2026-04-11 16:05 | 28.61223 | -48.62904 | 36275 ft | 469 kts | 246° |
| 2026-04-11 16:06 | 28.56861 | -48.72822 | 36275 ft | 468 kts | 246° |
| 2026-04-11 16:06 | 28.53949 | -48.79428 | 36273 ft | 468 kts | 246° |
| 2026-04-11 16:07 | 28.51018 | -48.86062 | 36268 ft | 468 kts | 246° |
| 2026-04-11 16:07 | 28.48177 | -48.92486 | 36264 ft | 468 kts | 246° |
| 2026-04-11 16:08 | 28.45257 | -48.99083 | 36263 ft | 467 kts | 246° |
| 2026-04-11 16:08 | 28.42325 | -49.05689 | 36262 ft | 467 kts | 246° |
| 2026-04-11 16:09 | 28.39418 | -49.12231 | 36261 ft | 466 kts | 246° |
| 2026-04-11 16:09 | 28.36506 | -49.18773 | 36263 ft | 466 kts | 246° |
| 2026-04-11 16:10 | 28.33573 | -49.25349 | 36262 ft | 466 kts | 246° |
| 2026-04-11 16:10 | 28.30651 | -49.31895 | 36262 ft | 466 kts | 246° |
| 2026-04-11 16:11 | 28.27726 | -49.38433 | 36262 ft | 465 kts | 246° |
| 2026-04-11 16:11 | 28.24813 | -49.44937 | 36262 ft | 466 kts | 245° |
| 2026-04-11 16:12 | 28.21866 | -49.51503 | 36259 ft | 465 kts | 245° |
| 2026-04-11 16:12 | 28.18944 | -49.58005 | 36255 ft | 465 kts | 245° |
| 2026-04-11 16:13 | 28.16014 | -49.64515 | 36253 ft | 465 kts | 245° |
| 2026-04-11 16:13 | 28.13079 | -49.71026 | 36252 ft | 465 kts | 245° |
| 2026-04-11 16:14 | 28.10148 | -49.77519 | 36249 ft | 464 kts | 245° |
| 2026-04-11 16:14 | 28.07206 | -49.84027 | 36244 ft | 464 kts | 245° |
| 2026-04-11 16:15 | 28.04265 | -49.90528 | 36247 ft | 465 kts | 245° |
| 2026-04-11 16:15 | 28.01333 | -49.96995 | 36243 ft | 465 kts | 245° |
| 2026-04-11 16:16 | 27.98387 | -50.03513 | 36242 ft | 464 kts | 245° |
| 2026-04-11 16:16 | 27.95494 | -50.09989 | 36240 ft | 463 kts | 245° |
| 2026-04-11 16:17 | 27.92593 | -50.16486 | 36240 ft | 463 kts | 245° |
| 2026-04-11 16:17 | 27.89697 | -50.22960 | 36237 ft | 462 kts | 245° |
| 2026-04-11 16:18 | 27.86802 | -50.29425 | 36240 ft | 463 kts | 245° |
| 2026-04-11 16:18 | 27.83881 | -50.35933 | 36240 ft | 464 kts | 245° |
| 2026-04-11 16:19 | 27.80975 | -50.42400 | 36240 ft | 464 kts | 245° |
| 2026-04-11 16:19 | 27.78057 | -50.48880 | 36242 ft | 463 kts | 245° |
| 2026-04-11 16:20 | 27.75151 | -50.55325 | 36240 ft | 463 kts | 245° |
| 2026-04-11 16:20 | 27.72226 | -50.61805 | 36240 ft | 463 kts | 245° |
| 2026-04-11 16:21 | 27.69308 | -50.68254 | 36238 ft | 463 kts | 245° |
| 2026-04-11 16:21 | 27.66389 | -50.74697 | 36239 ft | 463 kts | 245° |
| 2026-04-11 16:22 | 27.63467 | -50.81141 | 36238 ft | 464 kts | 245° |
| 2026-04-11 16:22 | 27.60525 | -50.87617 | 36237 ft | 464 kts | 245° |
| 2026-04-11 16:23 | 27.57596 | -50.94052 | 36232 ft | 463 kts | 244° |
| 2026-04-11 16:23 | 27.54647 | -51.00520 | 36231 ft | 463 kts | 245° |
| 2026-04-11 16:24 | 27.51717 | -51.06937 | 36230 ft | 463 kts | 245° |
| 2026-04-11 16:24 | 27.48771 | -51.13381 | 36229 ft | 463 kts | 245° |
| 2026-04-11 16:25 | 27.45820 | -51.19824 | 36227 ft | 463 kts | 245° |
| 2026-04-11 16:25 | 27.42860 | -51.26281 | 36228 ft | 463 kts | 245° |
| 2026-04-11 16:26 | 27.39909 | -51.32704 | 36227 ft | 463 kts | 245° |
| 2026-04-11 16:26 | 27.36968 | -51.39097 | 36225 ft | 462 kts | 245° |
| 2026-04-11 16:27 | 27.34010 | -51.45517 | 36223 ft | 462 kts | 244° |
| 2026-04-11 16:27 | 27.31058 | -51.51916 | 36223 ft | 462 kts | 244° |
| 2026-04-11 16:28 | 27.28104 | -51.58308 | 36219 ft | 463 kts | 245° |
| 2026-04-11 16:28 | 27.25136 | -51.64721 | 36219 ft | 462 kts | 244° |
| 2026-04-11 16:29 | 27.22159 | -51.71142 | 36218 ft | 463 kts | 244° |
| 2026-04-11 16:29 | 27.19204 | -51.77507 | 36222 ft | 462 kts | 244° |
| 2026-04-11 16:30 | 27.16235 | -51.83892 | 36221 ft | 462 kts | 244° |
| 2026-04-11 16:30 | 27.13258 | -51.90283 | 36221 ft | 461 kts | 244° |
| 2026-04-11 16:31 | 27.10300 | -51.96626 | 36219 ft | 461 kts | 244° |
| 2026-04-11 16:31 | 27.07342 | -52.02963 | 36218 ft | 460 kts | 244° |
| 2026-04-11 16:32 | 27.04359 | -52.09340 | 36218 ft | 461 kts | 244° |
| 2026-04-11 16:32 | 27.01384 | -52.15691 | 36219 ft | 461 kts | 244° |
| 2026-04-11 16:33 | 26.98420 | -52.22011 | 36210 ft | 461 kts | 244° |
| 2026-04-11 16:33 | 26.95423 | -52.28389 | 36209 ft | 461 kts | 244° |
| 2026-04-11 16:34 | 26.92451 | -52.34702 | 36201 ft | 460 kts | 244° |
| 2026-04-11 16:34 | 26.89470 | -52.41027 | 36200 ft | 460 kts | 244° |
| 2026-04-11 16:35 | 26.86482 | -52.47361 | 36202 ft | 460 kts | 244° |
| 2026-04-11 16:35 | 26.83504 | -52.53663 | 36203 ft | 459 kts | 244° |
| 2026-04-11 16:36 | 26.80512 | -52.59985 | 36205 ft | 459 kts | 244° |
| 2026-04-11 16:36 | 26.77530 | -52.66276 | 36202 ft | 459 kts | 243° |
| 2026-04-11 16:37 | 26.74538 | -52.72579 | 36202 ft | 459 kts | 243° |
| 2026-04-11 16:37 | 26.71551 | -52.78863 | 36201 ft | 459 kts | 243° |
| 2026-04-11 16:38 | 26.68557 | -52.85152 | 36199 ft | 459 kts | 243° |
| 2026-04-11 16:38 | 26.65563 | -52.91433 | 36200 ft | 459 kts | 243° |
| 2026-04-11 16:39 | 26.62565 | -52.97710 | 36198 ft | 459 kts | 243° |
| 2026-04-11 16:39 | 26.59553 | -53.04010 | 36197 ft | 458 kts | 243° |
| 2026-04-11 16:40 | 26.56558 | -53.10265 | 36197 ft | 458 kts | 243° |
| 2026-04-11 16:40 | 26.53559 | -53.16519 | 36196 ft | 458 kts | 243° |
| 2026-04-11 16:41 | 26.50558 | -53.22769 | 36194 ft | 458 kts | 243° |
| 2026-04-11 16:41 | 26.47548 | -53.29028 | 36193 ft | 458 kts | 243° |
| 2026-04-11 16:42 | 26.44538 | -53.35277 | 36192 ft | 457 kts | 243° |
| 2026-04-11 16:43 | 26.40008 | -53.44666 | 36189 ft | 457 kts | 243° |
| 2026-04-11 16:43 | 26.36998 | -53.50897 | 36189 ft | 457 kts | 243° |
| 2026-04-11 16:44 | 26.33991 | -53.57109 | 36188 ft | 457 kts | 243° |
| 2026-04-11 16:44 | 26.30982 | -53.63317 | 36185 ft | 457 kts | 243° |
| 2026-04-11 16:45 | 26.27949 | -53.69566 | 36183 ft | 457 kts | 243° |
| 2026-04-11 16:45 | 26.24944 | -53.75749 | 36183 ft | 457 kts | 243° |
| 2026-04-11 16:46 | 26.21910 | -53.81982 | 36182 ft | 457 kts | 243° |
| 2026-04-11 16:46 | 26.18881 | -53.88198 | 36182 ft | 456 kts | 243° |
| 2026-04-11 16:47 | 26.15867 | -53.94373 | 36175 ft | 457 kts | 243° |
| 2026-04-11 16:47 | 26.12830 | -54.00587 | 36165 ft | 456 kts | 243° |
| 2026-04-11 16:48 | 26.09802 | -54.06772 | 36161 ft | 456 kts | 243° |
| 2026-04-11 16:48 | 26.06768 | -54.12960 | 36157 ft | 456 kts | 243° |
| 2026-04-11 16:49 | 26.03731 | -54.19148 | 36157 ft | 456 kts | 243° |
| 2026-04-11 16:49 | 26.00696 | -54.25325 | 36158 ft | 456 kts | 243° |
| 2026-04-11 16:50 | 25.97658 | -54.31498 | 36159 ft | 455 kts | 243° |
| 2026-04-11 16:50 | 25.94630 | -54.37645 | 36156 ft | 456 kts | 243° |
| 2026-04-11 16:51 | 25.91577 | -54.43829 | 36158 ft | 455 kts | 243° |
| 2026-04-11 16:51 | 25.88550 | -54.49954 | 36155 ft | 456 kts | 243° |
| 2026-04-11 16:52 | 25.85486 | -54.56145 | 36157 ft | 456 kts | 243° |
| 2026-04-11 16:52 | 25.82451 | -54.62268 | 36157 ft | 455 kts | 243° |
| 2026-04-11 16:53 | 25.79404 | -54.68412 | 36158 ft | 455 kts | 242° |
| 2026-04-11 16:53 | 25.76347 | -54.74562 | 36156 ft | 456 kts | 242° |
| 2026-04-11 16:54 | 25.73296 | -54.80695 | 36156 ft | 456 kts | 242° |
| 2026-04-11 16:54 | 25.70223 | -54.86863 | 36157 ft | 456 kts | 242° |
| 2026-04-11 16:55 | 25.67162 | -54.92997 | 36155 ft | 456 kts | 242° |
| 2026-04-11 16:55 | 25.64099 | -54.99129 | 36157 ft | 456 kts | 243° |
| 2026-04-11 16:56 | 25.59499 | -55.08322 | 36155 ft | 456 kts | 242° |
| 2026-04-11 16:56 | 25.56420 | -55.14463 | 36155 ft | 455 kts | 242° |
| 2026-04-11 16:57 | 25.53358 | -55.20563 | 36155 ft | 455 kts | 242° |
| 2026-04-11 16:57 | 25.50282 | -55.26682 | 36157 ft | 455 kts | 242° |
| 2026-04-11 16:58 | 25.47201 | -55.32803 | 36155 ft | 455 kts | 242° |
| 2026-04-11 16:58 | 25.44132 | -55.38894 | 36157 ft | 456 kts | 242° |
| 2026-04-11 16:59 | 25.41054 | -55.44993 | 36157 ft | 455 kts | 242° |
| 2026-04-11 16:59 | 25.37961 | -55.51114 | 36156 ft | 455 kts | 242° |
| 2026-04-11 17:00 | 25.34877 | -55.57209 | 36153 ft | 455 kts | 242° |
| 2026-04-11 17:00 | 25.31791 | -55.63299 | 36149 ft | 455 kts | 242° |
| 2026-04-11 17:01 | 25.28710 | -55.69373 | 36149 ft | 456 kts | 242° |
| 2026-04-11 17:01 | 25.25609 | -55.75477 | 36146 ft | 455 kts | 242° |
| 2026-04-11 17:02 | 25.22520 | -55.81551 | 36147 ft | 455 kts | 242° |
| 2026-04-11 17:02 | 25.19414 | -55.87651 | 36145 ft | 455 kts | 242° |
| 2026-04-11 17:03 | 25.16299 | -55.93756 | 36140 ft | 456 kts | 242° |
| 2026-04-11 17:03 | 25.13204 | -55.99816 | 36138 ft | 456 kts | 242° |
| 2026-04-11 17:04 | 25.10092 | -56.05902 | 36139 ft | 456 kts | 242° |
| 2026-04-11 17:04 | 25.06978 | -56.11985 | 36137 ft | 455 kts | 242° |
| 2026-04-11 17:05 | 25.03875 | -56.18039 | 36135 ft | 454 kts | 242° |
| 2026-04-11 17:05 | 25.00760 | -56.24105 | 36134 ft | 455 kts | 242° |
| 2026-04-11 17:06 | 24.97634 | -56.30187 | 36131 ft | 454 kts | 242° |
| 2026-04-11 17:06 | 24.94524 | -56.36229 | 36131 ft | 454 kts | 242° |
| 2026-04-11 17:07 | 24.91403 | -56.42283 | 36132 ft | 455 kts | 242° |
| 2026-04-11 17:07 | 24.88269 | -56.48358 | 36126 ft | 455 kts | 242° |
| 2026-04-11 17:08 | 24.85142 | -56.54411 | 36125 ft | 456 kts | 242° |
| 2026-04-11 17:08 | 24.82017 | -56.60454 | 36124 ft | 455 kts | 242° |
| 2026-04-11 17:09 | 24.78879 | -56.66508 | 36122 ft | 454 kts | 242° |
| 2026-04-11 17:09 | 24.75743 | -56.72555 | 36123 ft | 454 kts | 242° |
| 2026-04-11 17:13 | 24.53769 | -57.14708 | 36116 ft | 454 kts | 242° |
| 2026-04-11 17:13 | 24.50628 | -57.20705 | 36115 ft | 455 kts | 242° |
| 2026-04-11 17:14 | 24.47480 | -57.26706 | 36114 ft | 454 kts | 242° |
| 2026-04-11 17:14 | 24.44328 | -57.32707 | 36114 ft | 454 kts | 242° |
| 2026-04-11 17:15 | 24.38113 | -57.44513 | 36610 ft | 458 kts | 242° |
| 2026-04-11 17:16 | 24.36523 | -57.47528 | 36944 ft | 457 kts | 242° |
| 2026-04-11 17:16 | 24.34926 | -57.50554 | 37231 ft | 456 kts | 242° |
| 2026-04-11 17:16 | 24.33338 | -57.53561 | 37494 ft | 455 kts | 242° |
| 2026-04-11 17:16 | 24.31766 | -57.56539 | 37768 ft | 454 kts | 242° |
| 2026-04-11 17:17 | 24.30183 | -57.59535 | 38015 ft | 453 kts | 243° |
| 2026-04-11 17:17 | 24.27034 | -57.65493 | 38106 ft | 453 kts | 242° |
| 2026-04-11 17:18 | 24.23875 | -57.71461 | 38112 ft | 453 kts | 242° |
| 2026-04-11 17:18 | 24.20726 | -57.77402 | 38106 ft | 453 kts | 242° |
| 2026-04-11 17:19 | 24.17554 | -57.83378 | 38104 ft | 453 kts | 242° |
| 2026-04-11 17:19 | 24.14392 | -57.89327 | 38109 ft | 452 kts | 242° |
| 2026-04-11 17:20 | 24.11229 | -57.95274 | 38105 ft | 453 kts | 242° |
| 2026-04-11 17:20 | 24.08050 | -58.01244 | 38107 ft | 454 kts | 242° |
| 2026-04-11 17:21 | 24.04886 | -58.07173 | 38114 ft | 454 kts | 242° |
| 2026-04-11 17:21 | 24.01718 | -58.13102 | 38113 ft | 453 kts | 242° |
| 2026-04-11 17:22 | 23.98531 | -58.19062 | 38113 ft | 453 kts | 242° |
| 2026-04-11 17:22 | 23.95350 | -58.25005 | 38105 ft | 453 kts | 242° |
| 2026-04-11 17:23 | 23.92185 | -58.30912 | 38109 ft | 453 kts | 242° |
| 2026-04-11 17:23 | 23.89013 | -58.36824 | 38099 ft | 452 kts | 242° |
| 2026-04-11 17:24 | 23.85819 | -58.42767 | 38096 ft | 452 kts | 242° |
| 2026-04-11 17:24 | 23.82648 | -58.48664 | 38093 ft | 451 kts | 242° |
| 2026-04-11 17:25 | 23.79483 | -58.54539 | 38090 ft | 451 kts | 242° |
| 2026-04-11 17:25 | 23.76301 | -58.60440 | 38093 ft | 451 kts | 242° |
| 2026-04-11 17:26 | 23.73107 | -58.66357 | 38093 ft | 452 kts | 242° |
| 2026-04-11 17:26 | 23.69923 | -58.72247 | 38081 ft | 452 kts | 242° |
| 2026-04-11 17:27 | 23.66742 | -58.78127 | 38082 ft | 452 kts | 242° |
| 2026-04-11 17:27 | 23.63552 | -58.84014 | 38079 ft | 451 kts | 242° |
| 2026-04-11 17:28 | 23.60368 | -58.89883 | 38076 ft | 451 kts | 242° |
| 2026-04-11 17:28 | 23.57178 | -58.95756 | 38118 ft | 452 kts | 242° |
| 2026-04-11 17:28 | 23.55572 | -58.98712 | 38433 ft | 449 kts | 242° |
| 2026-04-11 17:29 | 23.54007 | -59.01586 | 38806 ft | 446 kts | 242° |
| 2026-04-11 17:29 | 23.52416 | -59.04508 | 39122 ft | 444 kts | 242° |
| 2026-04-11 17:29 | 23.50855 | -59.07376 | 39345 ft | 443 kts | 242° |
| 2026-04-11 17:29 | 23.49289 | -59.10252 | 39482 ft | 444 kts | 242° |
| 2026-04-11 17:30 | 23.47708 | -59.13157 | 39604 ft | 445 kts | 242° |
| 2026-04-11 17:30 | 23.46128 | -59.16055 | 39787 ft | 445 kts | 242° |
| 2026-04-11 17:30 | 23.44555 | -59.18936 | 39992 ft | 445 kts | 242° |
| 2026-04-11 17:31 | 23.41396 | -59.24720 | 40069 ft | 444 kts | 242° |
| 2026-04-11 17:31 | 23.38243 | -59.30484 | 40072 ft | 444 kts | 242° |
| 2026-04-11 17:32 | 23.35078 | -59.36268 | 40073 ft | 444 kts | 242° |
| 2026-04-11 17:32 | 23.31923 | -59.42023 | 40074 ft | 444 kts | 242° |
| 2026-04-11 17:33 | 23.28774 | -59.47764 | 40071 ft | 444 kts | 242° |
| 2026-04-11 17:33 | 23.25621 | -59.53505 | 40072 ft | 444 kts | 242° |
| 2026-04-11 17:34 | 23.22452 | -59.59268 | 40072 ft | 444 kts | 242° |
| 2026-04-11 17:34 | 23.19263 | -59.65059 | 40072 ft | 445 kts | 242° |
| 2026-04-11 17:35 | 23.16100 | -59.70799 | 40074 ft | 444 kts | 242° |
| 2026-04-11 17:35 | 23.12927 | -59.76554 | 40073 ft | 444 kts | 242° |
| 2026-04-11 17:36 | 23.09765 | -59.82282 | 40073 ft | 444 kts | 242° |
| 2026-04-11 17:36 | 23.06597 | -59.88014 | 40073 ft | 443 kts | 242° |
| 2026-04-11 17:37 | 23.03421 | -59.93758 | 40073 ft | 443 kts | 242° |
| 2026-04-11 17:37 | 23.00257 | -59.99472 | 40072 ft | 444 kts | 242° |
| 2026-04-11 17:38 | 22.96943 | -60.05116 | 40068 ft | 444 kts | 239° |
| 2026-04-11 17:38 | 22.93560 | -60.10710 | 40066 ft | 445 kts | 239° |
| 2026-04-11 17:39 | 22.90162 | -60.16353 | 40066 ft | 445 kts | 239° |
| 2026-04-11 17:39 | 22.86785 | -60.21970 | 40069 ft | 445 kts | 239° |
| 2026-04-11 17:40 | 22.83429 | -60.27552 | 40067 ft | 445 kts | 240° |
| 2026-04-11 17:40 | 22.80044 | -60.33181 | 40061 ft | 445 kts | 240° |
| 2026-04-11 17:41 | 22.76677 | -60.38777 | 40061 ft | 445 kts | 240° |
| 2026-04-11 17:41 | 22.73302 | -60.44379 | 40060 ft | 444 kts | 240° |
| 2026-04-11 17:42 | 22.69931 | -60.49967 | 40062 ft | 444 kts | 240° |
| 2026-04-11 17:42 | 22.66559 | -60.55553 | 40057 ft | 444 kts | 240° |
| 2026-04-11 17:43 | 22.61502 | -60.63920 | 40058 ft | 444 kts | 240° |
| 2026-04-11 17:43 | 22.58124 | -60.69501 | 40057 ft | 444 kts | 239° |
| 2026-04-11 17:44 | 22.54729 | -60.75103 | 40053 ft | 444 kts | 239° |
| 2026-04-11 17:44 | 22.51333 | -60.80702 | 40054 ft | 445 kts | 239° |
| 2026-04-11 17:45 | 22.47957 | -60.86262 | 40055 ft | 445 kts | 239° |
| 2026-04-11 17:45 | 22.44560 | -60.91853 | 40053 ft | 445 kts | 239° |
| 2026-04-11 17:46 | 22.41162 | -60.97435 | 40053 ft | 445 kts | 239° |
| 2026-04-11 17:46 | 22.37774 | -61.02997 | 40054 ft | 445 kts | 239° |
| 2026-04-11 17:47 | 22.34368 | -61.08582 | 40054 ft | 445 kts | 239° |
| 2026-04-11 17:47 | 22.30974 | -61.14142 | 40055 ft | 445 kts | 239° |
| 2026-04-11 17:48 | 22.25868 | -61.22496 | 40054 ft | 443 kts | 239° |
| 2026-04-11 17:49 | 22.20787 | -61.30796 | 40053 ft | 443 kts | 239° |
| 2026-04-11 17:50 | 22.15688 | -61.39114 | 40055 ft | 444 kts | 240° |
| 2026-04-11 17:50 | 22.12273 | -61.44675 | 40052 ft | 444 kts | 239° |
| 2026-04-11 17:51 | 22.08879 | -61.50199 | 40051 ft | 444 kts | 239° |
| 2026-04-11 17:51 | 22.03769 | -61.58505 | 40052 ft | 444 kts | 239° |
| 2026-04-11 17:52 | 22.00341 | -61.64067 | 40052 ft | 445 kts | 240° |
| 2026-04-11 17:52 | 21.96925 | -61.69604 | 40052 ft | 446 kts | 239° |
| 2026-04-11 17:53 | 21.93498 | -61.75154 | 40052 ft | 445 kts | 239° |
| 2026-04-11 17:53 | 21.90085 | -61.80677 | 40050 ft | 445 kts | 239° |
| 2026-04-11 17:54 | 21.86651 | -61.86230 | 40050 ft | 445 kts | 239° |
| 2026-04-11 17:54 | 21.83229 | -61.91754 | 40049 ft | 444 kts | 239° |
| 2026-04-11 17:55 | 21.79821 | -61.97255 | 40049 ft | 444 kts | 239° |
| 2026-04-11 17:55 | 21.76388 | -62.02788 | 40047 ft | 444 kts | 239° |
| 2026-04-11 17:56 | 21.72981 | -62.08273 | 40049 ft | 444 kts | 239° |
| 2026-04-11 17:56 | 21.69540 | -62.13808 | 40049 ft | 444 kts | 240° |
| 2026-04-11 17:57 | 21.66114 | -62.19313 | 40045 ft | 443 kts | 240° |
| 2026-04-11 17:57 | 21.62696 | -62.24799 | 40045 ft | 443 kts | 240° |
| 2026-04-11 17:58 | 21.59258 | -62.30316 | 40042 ft | 444 kts | 239° |
| 2026-04-11 17:58 | 21.55824 | -62.35817 | 40043 ft | 444 kts | 239° |
| 2026-04-11 17:59 | 21.52398 | -62.41302 | 40040 ft | 444 kts | 240° |
| 2026-04-11 17:59 | 21.48966 | -62.46791 | 40040 ft | 444 kts | 240° |
| 2026-04-11 18:00 | 21.45518 | -62.52304 | 40040 ft | 443 kts | 240° |
| 2026-04-11 18:00 | 21.42100 | -62.57766 | 40038 ft | 443 kts | 240° |
| 2026-04-11 18:01 | 21.38669 | -62.63240 | 40036 ft | 442 kts | 240° |
| 2026-04-11 18:01 | 21.35240 | -62.68684 | 40040 ft | 442 kts | 239° |
| 2026-04-11 18:02 | 21.31790 | -62.74161 | 40036 ft | 441 kts | 239° |
| 2026-04-11 18:02 | 21.28382 | -62.79574 | 40035 ft | 438 kts | 239° |
| 2026-04-11 18:03 | 21.24963 | -62.85006 | 40039 ft | 439 kts | 239° |
| 2026-04-11 18:03 | 21.21561 | -62.90402 | 40041 ft | 436 kts | 239° |
| 2026-04-11 18:04 | 21.18160 | -62.95799 | 40038 ft | 437 kts | 239° |
| 2026-04-11 18:04 | 21.14755 | -63.01197 | 40038 ft | 435 kts | 240° |
| 2026-04-11 18:05 | 21.11380 | -63.06536 | 40033 ft | 434 kts | 239° |
| 2026-04-11 18:05 | 21.07995 | -63.11867 | 40032 ft | 434 kts | 239° |
| 2026-04-11 18:06 | 21.04596 | -63.17224 | 40030 ft | 434 kts | 239° |
| 2026-04-11 18:06 | 21.01213 | -63.22552 | 40027 ft | 435 kts | 240° |
| 2026-04-11 18:07 | 20.97799 | -63.27933 | 40031 ft | 436 kts | 240° |
| 2026-04-11 18:07 | 20.94394 | -63.33291 | 40022 ft | 437 kts | 240° |
| 2026-04-11 18:08 | 20.90991 | -63.38642 | 40028 ft | 437 kts | 240° |
| 2026-04-11 18:08 | 20.87563 | -63.44032 | 40029 ft | 437 kts | 240° |
| 2026-04-11 18:09 | 20.84155 | -63.49386 | 40030 ft | 437 kts | 240° |
| 2026-04-11 18:09 | 20.80740 | -63.54750 | 40028 ft | 437 kts | 240° |
| 2026-04-11 18:10 | 20.77335 | -63.60088 | 40030 ft | 437 kts | 240° |
| 2026-04-11 18:10 | 20.73945 | -63.65470 | 40029 ft | 436 kts | 241° |
| 2026-04-11 18:11 | 20.70690 | -63.70933 | 40025 ft | 435 kts | 242° |
| 2026-04-11 18:11 | 20.67476 | -63.76343 | 40027 ft | 434 kts | 242° |
| 2026-04-11 18:12 | 20.64237 | -63.81773 | 40024 ft | 434 kts | 242° |
| 2026-04-11 18:12 | 20.60987 | -63.87213 | 40023 ft | 435 kts | 242° |
| 2026-04-11 18:13 | 20.57747 | -63.92628 | 40023 ft | 434 kts | 242° |
| 2026-04-11 18:13 | 20.54502 | -63.98049 | 40019 ft | 434 kts | 242° |
| 2026-04-11 18:14 | 20.51246 | -64.03478 | 40021 ft | 435 kts | 242° |
| 2026-04-11 18:14 | 20.48013 | -64.08868 | 40021 ft | 434 kts | 242° |
| 2026-04-11 18:15 | 20.44765 | -64.14272 | 40019 ft | 434 kts | 242° |
| 2026-04-11 18:15 | 20.41502 | -64.19701 | 40018 ft | 433 kts | 242° |
| 2026-04-11 18:16 | 20.38254 | -64.25099 | 40024 ft | 433 kts | 242° |
| 2026-04-11 18:16 | 20.35015 | -64.30479 | 40026 ft | 433 kts | 242° |
| 2026-04-11 18:17 | 20.31748 | -64.35895 | 40026 ft | 432 kts | 242° |
| 2026-04-11 18:17 | 20.28516 | -64.41253 | 40026 ft | 432 kts | 242° |
| 2026-04-11 18:18 | 20.25271 | -64.46627 | 40026 ft | 432 kts | 242° |
| 2026-04-11 18:18 | 20.22016 | -64.52013 | 40024 ft | 432 kts | 242° |
| 2026-04-11 18:19 | 20.18787 | -64.57352 | 40026 ft | 432 kts | 242° |
| 2026-04-11 18:19 | 20.15531 | -64.62736 | 40031 ft | 432 kts | 242° |
| 2026-04-11 18:20 | 20.12291 | -64.68089 | 40036 ft | 432 kts | 242° |
| 2026-04-11 18:20 | 20.09022 | -64.73479 | 40027 ft | 432 kts | 242° |
| 2026-04-11 18:21 | 20.05775 | -64.78805 | 40023 ft | 431 kts | 242° |
| 2026-04-11 18:21 | 20.02522 | -64.84141 | 40019 ft | 431 kts | 242° |
| 2026-04-11 18:22 | 19.99266 | -64.89487 | 40019 ft | 431 kts | 242° |
| 2026-04-11 18:22 | 19.95998 | -64.94852 | 40008 ft | 430 kts | 242° |
| 2026-04-11 18:23 | 19.92753 | -65.00173 | 40001 ft | 431 kts | 242° |
| 2026-04-11 18:23 | 19.89499 | -65.05505 | 39989 ft | 431 kts | 242° |
| 2026-04-11 18:24 | 19.86413 | -65.10563 | 39990 ft | 432 kts | 242° |
| 2026-04-11 18:24 | 19.83127 | -65.15939 | 39990 ft | 432 kts | 242° |
| 2026-04-11 18:25 | 19.79866 | -65.21268 | 39986 ft | 432 kts | 242° |
| 2026-04-11 18:26 | 19.74945 | -65.29302 | 39986 ft | 431 kts | 242° |
| 2026-04-11 18:26 | 19.71686 | -65.34616 | 39990 ft | 431 kts | 242° |
| 2026-04-11 18:27 | 19.68405 | -65.39964 | 39985 ft | 431 kts | 242° |
| 2026-04-11 18:27 | 19.65145 | -65.45272 | 39986 ft | 431 kts | 242° |
| 2026-04-11 18:28 | 19.61881 | -65.50580 | 39986 ft | 431 kts | 242° |
| 2026-04-11 18:28 | 19.58609 | -65.55905 | 39985 ft | 430 kts | 242° |
| 2026-04-11 18:29 | 19.55352 | -65.61195 | 39985 ft | 432 kts | 242° |
| 2026-04-11 18:29 | 19.52053 | -65.66552 | 39986 ft | 432 kts | 242° |
| 2026-04-11 18:30 | 19.48787 | -65.71854 | 39982 ft | 432 kts | 242° |
| 2026-04-11 18:30 | 19.45487 | -65.77203 | 39981 ft | 432 kts | 242° |
| 2026-04-11 18:31 | 19.42302 | -65.82575 | 39982 ft | 430 kts | 244° |
| 2026-04-11 18:31 | 19.39295 | -65.87992 | 39980 ft | 430 kts | 244° |
| 2026-04-11 18:32 | 19.36256 | -65.93478 | 39977 ft | 430 kts | 244° |
| 2026-04-11 18:32 | 19.33240 | -65.98920 | 39976 ft | 430 kts | 244° |
| 2026-04-11 18:33 | 19.30211 | -66.04382 | 39976 ft | 430 kts | 244° |
| 2026-04-11 18:33 | 19.27193 | -66.09827 | 39974 ft | 430 kts | 244° |
| 2026-04-11 18:34 | 19.24161 | -66.15295 | 39974 ft | 431 kts | 244° |
| 2026-04-11 18:34 | 19.21126 | -66.20760 | 39973 ft | 431 kts | 244° |
| 2026-04-11 18:35 | 19.18083 | -66.26238 | 39975 ft | 431 kts | 244° |
| 2026-04-11 18:35 | 19.15053 | -66.31667 | 39983 ft | 431 kts | 244° |
| 2026-04-11 18:36 | 19.11986 | -66.37149 | 39980 ft | 432 kts | 244° |
| 2026-04-11 18:36 | 19.08935 | -66.42610 | 39980 ft | 431 kts | 244° |
| 2026-04-11 18:37 | 19.05902 | -66.48038 | 39981 ft | 432 kts | 244° |
| 2026-04-11 18:37 | 19.02854 | -66.53487 | 39976 ft | 432 kts | 244° |
| 2026-04-11 18:38 | 18.99794 | -66.58958 | 39654 ft | 431 kts | 244° |
| 2026-04-11 18:38 | 18.98277 | -66.61665 | 39340 ft | 428 kts | 244° |
| 2026-04-11 18:38 | 18.96769 | -66.64355 | 39025 ft | 425 kts | 244° |
| 2026-04-11 18:38 | 18.95268 | -66.67030 | 38715 ft | 421 kts | 244° |
| 2026-04-11 18:39 | 18.93853 | -66.69553 | 38421 ft | 421 kts | 244° |
| 2026-04-11 18:39 | 18.92376 | -66.72191 | 38139 ft | 421 kts | 244° |
| 2026-04-11 18:39 | 18.90873 | -66.74875 | 37851 ft | 420 kts | 244° |
| 2026-04-11 18:39 | 18.89400 | -66.77499 | 37557 ft | 420 kts | 244° |
| 2026-04-11 18:40 | 18.87907 | -66.80160 | 37240 ft | 420 kts | 244° |
| 2026-04-11 18:40 | 18.86544 | -66.82588 | 36850 ft | 422 kts | 244° |
| 2026-04-11 18:40 | 18.85051 | -66.85248 | 36312 ft | 422 kts | 244° |
| 2026-04-11 18:40 | 18.83550 | -66.87920 | 35740 ft | 423 kts | 244° |
| 2026-04-11 18:41 | 18.82056 | -66.90577 | 35168 ft | 422 kts | 244° |
| 2026-04-11 18:41 | 18.80562 | -66.93229 | 34603 ft | 422 kts | 244° |
| 2026-04-11 18:41 | 18.79051 | -66.95915 | 34028 ft | 422 kts | 244° |
| 2026-04-11 18:41 | 18.77558 | -66.98566 | 33456 ft | 422 kts | 244° |
| 2026-04-11 18:42 | 18.76077 | -67.01195 | 32885 ft | 421 kts | 244° |
| 2026-04-11 18:42 | 18.74585 | -67.03843 | 32349 ft | 422 kts | 244° |
| 2026-04-11 18:42 | 18.73085 | -67.06509 | 31783 ft | 422 kts | 243° |
| 2026-04-11 18:42 | 18.71586 | -67.09171 | 31198 ft | 423 kts | 243° |
| 2026-04-11 18:43 | 18.70091 | -67.11824 | 30588 ft | 425 kts | 243° |
| 2026-04-11 18:43 | 18.68587 | -67.14492 | 29963 ft | 427 kts | 242° |
| 2026-04-11 18:43 | 18.67057 | -67.17205 | 29300 ft | 430 kts | 242° |
| 2026-04-11 18:43 | 18.65546 | -67.19882 | 28629 ft | 433 kts | 242° |
| 2026-04-11 18:44 | 18.63987 | -67.22643 | 27935 ft | 435 kts | 242° |
| 2026-04-11 18:44 | 18.62456 | -67.25352 | 27453 ft | 433 kts | 241° |
| 2026-04-11 18:44 | 18.60911 | -67.28081 | 26949 ft | 431 kts | 241° |
| 2026-04-11 18:44 | 18.59396 | -67.30757 | 26495 ft | 429 kts | 241° |
| 2026-04-11 18:45 | 18.57867 | -67.33453 | 26019 ft | 427 kts | 241° |
| 2026-04-11 18:45 | 18.56358 | -67.36116 | 25497 ft | 426 kts | 240° |
| 2026-04-11 18:45 | 18.54835 | -67.38804 | 25020 ft | 424 kts | 240° |
| 2026-04-11 18:45 | 18.53321 | -67.41474 | 24479 ft | 424 kts | 240° |
| 2026-04-11 18:46 | 18.51817 | -67.44125 | 23989 ft | 422 kts | 240° |
| 2026-04-11 18:46 | 18.50454 | -67.46845 | 23507 ft | 420 kts | 248° |
| 2026-04-11 18:46 | 18.49515 | -67.49721 | 23046 ft | 417 kts | 256° |
| 2026-04-11 18:46 | 18.48994 | -67.52727 | 22619 ft | 414 kts | 264° |
| 2026-04-11 18:47 | 18.48844 | -67.55734 | 22200 ft | 412 kts | 268° |
| 2026-04-11 18:47 | 18.48781 | -67.58743 | 21762 ft | 410 kts | 269° |
| 2026-04-11 18:47 | 18.48731 | -67.61719 | 21332 ft | 409 kts | 269° |
| 2026-04-11 18:47 | 18.48678 | -67.64705 | 20903 ft | 407 kts | 269° |
| 2026-04-11 18:48 | 18.48622 | -67.67662 | 20480 ft | 405 kts | 269° |
| 2026-04-11 18:48 | 18.48562 | -67.70599 | 20060 ft | 403 kts | 269° |
| 2026-04-11 18:48 | 18.48510 | -67.73083 | 19705 ft | 401 kts | 269° |
| 2026-04-11 18:48 | 18.48448 | -67.76011 | 19281 ft | 399 kts | 269° |
| 2026-04-11 18:49 | 18.48385 | -67.78915 | 18850 ft | 398 kts | 269° |
| 2026-04-11 18:49 | 18.48321 | -67.81842 | 18500 ft | 393 kts | 269° |
| 2026-04-11 18:49 | 18.48259 | -67.84647 | 18379 ft | 382 kts | 269° |
| 2026-04-11 18:49 | 18.48197 | -67.87431 | 18284 ft | 371 kts | 269° |
| 2026-04-11 18:50 | 18.48139 | -67.90081 | 18140 ft | 361 kts | 269° |
| 2026-04-11 18:50 | 18.48080 | -67.92690 | 18051 ft | 350 kts | 269° |
| 2026-04-11 18:50 | 18.48023 | -67.95213 | 17989 ft | 339 kts | 269° |
| 2026-04-11 18:50 | 18.47967 | -67.97641 | 17966 ft | 327 kts | 269° |
| 2026-04-11 18:51 | 18.47936 | -68.00036 | 17970 ft | 327 kts | 272° |
| 2026-04-11 18:51 | 18.48015 | -68.02402 | 17966 ft | 327 kts | 273° |
| 2026-04-11 18:51 | 18.48119 | -68.04794 | 17968 ft | 327 kts | 274° |
| 2026-04-11 18:51 | 18.48227 | -68.07199 | 17954 ft | 325 kts | 274° |
| 2026-04-11 18:52 | 18.48332 | -68.09553 | 17720 ft | 322 kts | 274° |
| 2026-04-11 18:52 | 18.48437 | -68.11910 | 17341 ft | 323 kts | 274° |
| 2026-04-11 18:52 | 18.48540 | -68.14246 | 17000 ft | 322 kts | 274° |
| 2026-04-11 18:52 | 18.48644 | -68.16618 | 16685 ft | 321 kts | 274° |
| 2026-04-11 18:53 | 18.48747 | -68.18952 | 16374 ft | 320 kts | 274° |
| 2026-04-11 18:53 | 18.48849 | -68.21268 | 16044 ft | 319 kts | 274° |
| 2026-04-11 18:53 | 18.48949 | -68.23589 | 15714 ft | 317 kts | 274° |
| 2026-04-11 18:53 | 18.49050 | -68.25903 | 15433 ft | 315 kts | 274° |
| 2026-04-11 18:54 | 18.49149 | -68.28194 | 15127 ft | 314 kts | 274° |
| 2026-04-11 18:54 | 18.49248 | -68.30486 | 14832 ft | 312 kts | 274° |
| 2026-04-11 18:54 | 18.49347 | -68.32757 | 14522 ft | 311 kts | 274° |
| 2026-04-11 18:54 | 18.49444 | -68.35026 | 14218 ft | 310 kts | 274° |
| 2026-04-11 18:55 | 18.49541 | -68.37286 | 13921 ft | 308 kts | 274° |
| 2026-04-11 18:55 | 18.49637 | -68.39542 | 13634 ft | 307 kts | 274° |
| 2026-04-11 18:55 | 18.49733 | -68.41777 | 13343 ft | 305 kts | 274° |
| 2026-04-11 18:55 | 18.49827 | -68.43985 | 12758 ft | 303 kts | 274° |
| 2026-04-11 18:56 | 18.49919 | -68.46169 | 12160 ft | 301 kts | 274° |
| 2026-04-11 18:56 | 18.50011 | -68.48364 | 11611 ft | 299 kts | 274° |
| 2026-04-11 18:56 | 18.50103 | -68.50518 | 11258 ft | 295 kts | 274° |
| 2026-04-11 18:56 | 18.50195 | -68.52681 | 10951 ft | 295 kts | 274° |
| 2026-04-11 18:57 | 18.50285 | -68.54845 | 10645 ft | 295 kts | 273° |
| 2026-04-11 18:57 | 18.50376 | -68.56991 | 10351 ft | 294 kts | 273° |
| 2026-04-11 18:57 | 18.50465 | -68.59135 | 10049 ft | 293 kts | 273° |
| 2026-04-11 18:57 | 18.50554 | -68.61276 | 9808 ft | 290 kts | 273° |
| 2026-04-11 18:58 | 18.50640 | -68.63373 | 9621 ft | 286 kts | 273° |
| 2026-04-11 18:58 | 18.50724 | -68.65450 | 9444 ft | 282 kts | 273° |
| 2026-04-11 18:58 | 18.50809 | -68.67494 | 9255 ft | 278 kts | 273° |
| 2026-04-11 18:58 | 18.50889 | -68.69429 | 9071 ft | 274 kts | 273° |
| 2026-04-11 18:59 | 18.50962 | -68.71191 | 8801 ft | 270 kts | 273° |
| 2026-04-11 18:59 | 18.51042 | -68.73159 | 8447 ft | 267 kts | 273° |
| 2026-04-11 18:59 | 18.51110 | -68.74802 | 8154 ft | 264 kts | 273° |
| 2026-04-11 18:59 | 18.51188 | -68.76721 | 7972 ft | 255 kts | 273° |
| 2026-04-11 19:00 | 18.51263 | -68.78563 | 7913 ft | 253 kts | 273° |
| 2026-04-11 19:00 | 18.51339 | -68.80419 | 7714 ft | 253 kts | 273° |
| 2026-04-11 19:00 | 18.51416 | -68.82275 | 7408 ft | 257 kts | 273° |
| 2026-04-11 19:00 | 18.51492 | -68.84154 | 7106 ft | 260 kts | 273° |
| 2026-04-11 19:01 | 18.51568 | -68.86078 | 6782 ft | 263 kts | 273° |
| 2026-04-11 19:01 | 18.51645 | -68.87998 | 6447 ft | 263 kts | 273° |
| 2026-04-11 19:01 | 18.51720 | -68.89909 | 6125 ft | 258 kts | 273° |
| 2026-04-11 19:01 | 18.51868 | -68.91760 | 5816 ft | 251 kts | 277° |
| 2026-04-11 19:02 | 18.52076 | -68.93555 | 5506 ft | 246 kts | 278° |
| 2026-04-11 19:02 | 18.52291 | -68.95348 | 5217 ft | 240 kts | 278° |
| 2026-04-11 19:02 | 18.52447 | -68.96646 | 5037 ft | 234 kts | 278° |
| 2026-04-11 19:02 | 18.52647 | -68.98334 | 4792 ft | 228 kts | 278° |
| 2026-04-11 19:03 | 18.52855 | -68.99964 | 4575 ft | 221 kts | 279° |
| 2026-04-11 19:03 | 18.53072 | -69.01533 | 4376 ft | 218 kts | 280° |
| 2026-04-11 19:03 | 18.53294 | -69.03120 | 4140 ft | 215 kts | 279° |
| 2026-04-11 19:03 | 18.53509 | -69.04660 | 3906 ft | 212 kts | 279° |
| 2026-04-11 19:04 | 18.53624 | -69.06187 | 3651 ft | 211 kts | 262° |
| 2026-04-11 19:04 | 18.53015 | -69.07561 | 3387 ft | 207 kts | 226° |
| 2026-04-11 19:04 | 18.51819 | -69.08334 | 3146 ft | 200 kts | 192° |
| 2026-04-11 19:04 | 18.50462 | -69.08557 | 2952 ft | 194 kts | 184° |
| 2026-04-11 19:05 | 18.49569 | -69.08652 | 2843 ft | 191 kts | 183° |
| 2026-04-11 19:05 | 18.47938 | -69.08362 | 2647 ft | 174 kts | 137° |
| 2026-04-11 19:05 | 18.47293 | -69.07378 | 2516 ft | 161 kts | 107° |
| 2026-04-11 19:05 | 18.47029 | -69.06221 | 2475 ft | 161 kts | 97° |
| 2026-04-11 19:06 | 18.46880 | -69.05042 | 2471 ft | 162 kts | 95° |
| 2026-04-11 19:06 | 18.46755 | -69.03876 | 2332 ft | 162 kts | 95° |
| 2026-04-11 19:06 | 18.46625 | -69.02705 | 2080 ft | 158 kts | 95° |
| 2026-04-11 19:06 | 18.46494 | -69.01581 | 1875 ft | 151 kts | 96° |
| 2026-04-11 19:07 | 18.46363 | -69.00495 | 1693 ft | 149 kts | 96° |
| 2026-04-11 19:07 | 18.46231 | -68.99431 | 1522 ft | 147 kts | 97° |
| 2026-04-11 19:07 | 18.46101 | -68.98350 | 1314 ft | 151 kts | 97° |
| 2026-04-11 19:07 | 18.45976 | -68.97251 | 1110 ft | 152 kts | 97° |
| 2026-04-11 19:08 | 18.45850 | -68.96139 | 901 ft | 152 kts | 98° |
| 2026-04-11 19:08 | 18.45707 | -68.95037 | 691 ft | 150 kts | 99° |
| 2026-04-11 19:08 | 18.45585 | -68.93955 | 512 ft | 148 kts | 99° |
| 2026-04-11 19:08 | 18.45462 | -68.92892 | 335 ft | 148 kts | 99° |
| 2026-04-11 19:09 | 18.45335 | -68.91833 | 235 ft | 139 kts | 100° |
| 2026-04-11 19:09 | 18.45229 | -68.90946 | 227 ft | 97 kts | 97° |
| 2026-04-11 19:09 | 18.45165 | -68.90409 | 223 ft | 56 kts | 99° |
| 2026-04-11 19:09 | 18.45118 | -68.90018 | 217 ft | 48 kts | 96° |
| 2026-04-11 19:10 | 18.45099 | -68.89825 | 214 ft | 15 kts | 87° |
| 2026-04-11 19:10 | 18.45083 | -68.89768 | 214 ft | 3 kts | 172° |
| 2026-04-11 19:10 | 18.45076 | -68.89796 | 214 ft | 5 kts | 280° |
| 2026-04-11 19:10 | 18.45092 | -68.89841 | 215 ft | 7 kts | 292° |
| 2026-04-11 19:11 | 18.45110 | -68.89915 | 216 ft | 15 kts | 279° |
| 2026-04-11 19:11 | 18.45127 | -68.90063 | 218 ft | 25 kts | 277° |
| 2026-04-11 19:11 | 18.45151 | -68.90284 | 221 ft | 34 kts | 277° |
| 2026-04-11 19:11 | 18.45182 | -68.90543 | 224 ft | 35 kts | 277° |
| 2026-04-11 19:12 | 18.45215 | -68.90791 | 226 ft | 33 kts | 277° |
| 2026-04-11 19:12 | 18.45241 | -68.91015 | 228 ft | 22 kts | 277° |
| 2026-04-11 19:12 | 18.45241 | -68.91114 | 228 ft | 10 kts | 239° |
| 2026-04-11 19:12 | 18.45175 | -68.91147 | 228 ft | 11 kts | 188° |
| 2026-04-11 19:13 | 18.45090 | -68.91155 | 227 ft | 12 kts | 185° |
| 2026-04-11 19:13 | 18.45023 | -68.91173 | 227 ft | 8 kts | 217° |
| 2026-04-11 19:13 | 18.44970 | -68.91196 | 227 ft | 7 kts | 188° |
| 2026-04-11 19:13 | 18.44946 | -68.91200 | 227 ft | 1 kts | 187° |
| 2026-04-11 19:14 | 18.44941 | -68.91200 | 227 ft | 0 kts | 187° |
| 2026-04-11 19:14 | 18.44939 | -68.91201 | 227 ft | 0 kts | 187° |